Observation data for Van Horn on 03/27/2019      Previous  Date  Next       Current Mesonet Observations  Soil Data  Daily Summary Page  Observations in Plain Language
KVA1 270500Z 35004KT 15/14 A3016 RMK A01 T01510138  RH  092%=      5-min Rain = 0
KVA1 270501Z 35004KT 15/14 A3016 RMK A01 T01510138  RH  092%=      5-min Rain = 0
KVA1 270502Z 00003KT 15/14 A3016 RMK A01 T01510138  RH  092%=      5-min Rain = 0
KVA1 270503Z 36004KT 15/14 A3016 RMK A01 T01510138  RH  092%=      5-min Rain = 0
KVA1 270504Z 33004KT 15/14 A3016 RMK A01 T01510139  RH  093%=      5-min Rain = 0
KVA1 270505Z 34005KT 15/14 A3016 RMK A01 T01500138  RH  093%=      5-min Rain = 0
KVA1 270506Z 35005KT 15/14 A3016 RMK A01 T01500137  RH  092%=      5-min Rain = 0
KVA1 270507Z 34005KT 15/14 A3016 RMK A01 T01490137  RH  092%=      5-min Rain = 0
KVA1 270508Z 34005KT 15/14 A3016 RMK A01 T01490137  RH  093%=      5-min Rain = 0
KVA1 270509Z 32005KT 15/14 A3016 RMK A01 T01490138  RH  093%=      5-min Rain = 0
KVA1 270510Z 32005KT 15/14 A3016 RMK A01 T01490137  RH  093%=      5-min Rain = 0
KVA1 270511Z 32005KT 15/14 A3016 RMK A01 T01490137  RH  093%=      5-min Rain = 0
KVA1 270512Z 32005KT 15/14 A3016 RMK A01 T01490137  RH  093%=      5-min Rain = 0
KVA1 270513Z 32004KT 15/14 A3016 RMK A01 T01490136  RH  092%=      5-min Rain = 0
KVA1 270514Z 32005KT 15/14 A3016 RMK A01 T01490136  RH  092%=      5-min Rain = 0
KVA1 270515Z 32004KT 15/14 A3016 RMK A01 T01490136  RH  092%=      5-min Rain = 0
KVA1 270516Z 33005KT 15/14 A3016 RMK A01 T01490135  RH  091%=      5-min Rain = 0
KVA1 270517Z 33005KT 15/14 A3016 RMK A01 T01490135  RH  091%=      5-min Rain = 0
KVA1 270518Z 34005KT 15/14 A3016 RMK A01 T01490135  RH  091%=      5-min Rain = 0
KVA1 270519Z 34004KT 15/14 A3016 RMK A01 T01490135  RH  091%=      5-min Rain = 0
KVA1 270520Z 34004KT 15/14 A3016 RMK A01 T01490135  RH  092%=      5-min Rain = 0
KVA1 270521Z 34004KT 15/14 A3016 RMK A01 T01490135  RH  092%=      5-min Rain = 0
KVA1 270522Z 33004KT 15/14 A3016 RMK A01 T01490135  RH  092%=      5-min Rain = 0
KVA1 270523Z 33004KT 15/14 A3016 RMK A01 T01490135  RH  091%=      5-min Rain = 0
KVA1 270524Z 33004KT 15/13 A3016 RMK A01 T01480134  RH  091%=      5-min Rain = 0
KVA1 270525Z 33004KT 15/13 A3016 RMK A01 T01480134  RH  091%=      5-min Rain = 0
KVA1 270526Z 33004KT 15/13 A3016 RMK A01 T01480134  RH  091%=      5-min Rain = 0
KVA1 270527Z 34004KT 15/13 A3016 RMK A01 T01480134  RH  091%=      5-min Rain = 0
KVA1 270528Z 35003KT 15/13 A3016 RMK A01 T01480133  RH  091%=      5-min Rain = 0
KVA1 270529Z 34003KT 15/13 A3016 RMK A01 T01480133  RH  091%=      5-min Rain = 0
KVA1 270530Z 34003KT 15/13 A3015 RMK A01 T01480133  RH  091%=      5-min Rain = 0
KVA1 270531Z 33003KT 15/13 A3015 RMK A01 T01490133  RH  090%=      5-min Rain = 0
KVA1 270532Z 33003KT 15/13 A3015 RMK A01 T01490133  RH  090%=      5-min Rain = 0
KVA1 270533Z 31003KT 15/13 A3015 RMK A01 T01480133  RH  091%=      5-min Rain = 0
KVA1 270534Z 30004KT 15/13 A3015 RMK A01 T01470133  RH  091%=      5-min Rain = 0
KVA1 270535Z 29004KT 15/13 A3015 RMK A01 T01470133  RH  091%=      5-min Rain = 0
KVA1 270536Z 29005KT 15/13 A3015 RMK A01 T01470133  RH  091%=      5-min Rain = 0
KVA1 270537Z 28005KT 15/13 A3015 RMK A01 T01470132  RH  091%=      5-min Rain = 0
KVA1 270538Z 28004KT 15/13 A3015 RMK A01 T01460132  RH  091%=      5-min Rain = 0
KVA1 270539Z 28004KT 15/13 A3015 RMK A01 T01460132  RH  091%=      5-min Rain = 0
KVA1 270540Z 28004KT 15/13 A3015 RMK A01 T01470132  RH  091%=      5-min Rain = 0
KVA1 270541Z 28004KT 15/13 A3015 RMK A01 T01470132  RH  091%=      5-min Rain = 0
KVA1 270542Z 29003KT 15/13 A3015 RMK A01 T01470132  RH  091%=      5-min Rain = 0
KVA1 270543Z 28003KT 15/13 A3015 RMK A01 T01470132  RH  091%=      5-min Rain = 0
KVA1 270544Z 29003KT 15/13 A3015 RMK A01 T01470132  RH  091%=      5-min Rain = 0
KVA1 270545Z 29003KT 15/13 A3015 RMK A01 T01470132  RH  091%=      5-min Rain = 0
KVA1 270546Z 30002KT 15/13 A3015 RMK A01 T01460132  RH  091%=      5-min Rain = 0
KVA1 270547Z 30002KT 15/13 A3014 RMK A01 T01460132  RH  091%=      5-min Rain = 0
KVA1 270548Z 30002KT 15/13 A3014 RMK A01 T01460132  RH  091%=      5-min Rain = 0
KVA1 270549Z 29002KT 15/13 A3014 RMK A01 T01460132  RH  091%=      5-min Rain = 0
KVA1 270550Z 28003KT 15/13 A3014 RMK A01 T01450131  RH  092%=      5-min Rain = 0
KVA1 270551Z 27003KT 15/13 A3014 RMK A01 T01450132  RH  092%=      5-min Rain = 0
KVA1 270552Z 27003KT 15/13 A3014 RMK A01 T01450133  RH  092%=      5-min Rain = 0
KVA1 270553Z 29003KT 14/13 A3014 RMK A01 T01440132  RH  093%=      5-min Rain = 0
KVA1 270554Z 30004KT 14/13 A3014 RMK A01 T01440132  RH  092%=      5-min Rain = 0
KVA1 270555Z 30005KT 14/13 A3014 RMK A01 T01440131  RH  092%=      5-min Rain = 0
KVA1 270556Z 30005KT 14/13 A3014 RMK A01 T01440131  RH  092%=      5-min Rain = 0
KVA1 270557Z 30006KT 14/13 A3014 RMK A01 T01440131  RH  092%=      5-min Rain = 0
KVA1 270558Z 30006KT 14/13 A3014 RMK A01 T01440131  RH  092%=      5-min Rain = 0
KVA1 270559Z 29006KT 15/13 A3014 RMK A01 T01450131  RH  091%=      5-min Rain = 0
KVA1 270600Z 27005KT 15/13 A3015 RMK A01 T01450131  RH  091%=      5-min Rain = 0
KVA1 270601Z 27005KT 15/13 A3015 RMK A01 T01460131  RH  091%=      5-min Rain = 0
KVA1 270602Z 25005KT 15/13 A3015 RMK A01 T01460131  RH  091%=      5-min Rain = 0
KVA1 270603Z 25005KT 15/13 A3015 RMK A01 T01460131  RH  091%=      5-min Rain = 0
KVA1 270604Z 25006KT 15/13 A3015 RMK A01 T01460131  RH  091%=      5-min Rain = 0
KVA1 270605Z 25006KT 15/13 A3015 RMK A01 T01460132  RH  091%=      5-min Rain = 0
KVA1 270606Z 25006KT 15/13 A3015 RMK A01 T01470133  RH  091%=      5-min Rain = 0
KVA1 270607Z 23006KT 15/13 A3015 RMK A01 T01470132  RH  091%=      5-min Rain = 0
KVA1 270608Z 23007KT 15/13 A3015 RMK A01 T01460132  RH  091%=      5-min Rain = 0
KVA1 270609Z 24007KT 15/13 A3015 RMK A01 T01470132  RH  091%=      5-min Rain = 0
KVA1 270610Z 23006KT 15/13 A3015 RMK A01 T01480132  RH  091%=      5-min Rain = 0
KVA1 270611Z 23006KT 15/13 A3015 RMK A01 T01480132  RH  090%=      5-min Rain = 0
KVA1 270612Z 23005KT 15/13 A3015 RMK A01 T01490132  RH  090%=      5-min Rain = 0
KVA1 270613Z 23006KT 15/13 A3015 RMK A01 T01500131  RH  089%=      5-min Rain = 0
KVA1 270614Z 23006KT 15/13 A3015 RMK A01 T01510131  RH  088%=      5-min Rain = 0
KVA1 270615Z 23006KT 15/13 A3015 RMK A01 T01510131  RH  088%=      5-min Rain = 0
KVA1 270616Z 23006KT 15/13 A3015 RMK A01 T01510131  RH  087%=      5-min Rain = 0
KVA1 270617Z 23006KT 15/13 A3015 RMK A01 T01520131  RH  087%=      5-min Rain = 0
KVA1 270618Z 23006KT 15/13 A3015 RMK A01 T01520131  RH  087%=      5-min Rain = 0
KVA1 270619Z 23006KT 15/13 A3015 RMK A01 T01520131  RH  087%=      5-min Rain = 0
KVA1 270620Z 22006KT 15/13 A3015 RMK A01 T01520130  RH  087%=      5-min Rain = 0
KVA1 270621Z 22005KT 15/13 A3015 RMK A01 T01510126  RH  085%=      5-min Rain = 0
KVA1 270622Z 22005KT 15/12 A3015 RMK A01 T01520124  RH  083%=      5-min Rain = 0
KVA1 270623Z 22005KT 15/12 A3015 RMK A01 T01540123  RH  082%=      5-min Rain = 0
KVA1 270624Z 23005KT 15/12 A3015 RMK A01 T01540122  RH  081%=      5-min Rain = 0
KVA1 270625Z 23004KT 16/12 A3015 RMK A01 T01550122  RH  081%=      5-min Rain = 0
KVA1 270626Z 23004KT 16/12 A3015 RMK A01 T01550123  RH  081%=      5-min Rain = 0
KVA1 270627Z 23005KT 15/12 A3015 RMK A01 T01540123  RH  082%=      5-min Rain = 0
KVA1 270628Z 23006KT 15/12 A3015 RMK A01 T01530122  RH  082%=      5-min Rain = 0
KVA1 270629Z 23006KT 15/12 A3015 RMK A01 T01530123  RH  082%=      5-min Rain = 0
KVA1 270630Z 23006KT 15/12 A3015 RMK A01 T01530123  RH  082%=      5-min Rain = 0
KVA1 270631Z 23006KT 15/12 A3015 RMK A01 T01520121  RH  082%=      5-min Rain = 0
KVA1 270632Z 23006KT 15/12 A3015 RMK A01 T01520122  RH  082%=      5-min Rain = 0
KVA1 270633Z 23007KT 15/12 A3015 RMK A01 T01520121  RH  082%=      5-min Rain = 0
KVA1 270634Z 22007KT 15/12 A3015 RMK A01 T01530120  RH  081%=      5-min Rain = 0
KVA1 270635Z 22008KT 15/12 A3015 RMK A01 T01530119  RH  080%=      5-min Rain = 0
KVA1 270636Z 22009KT 15/12 A3015 RMK A01 T01540118  RH  079%=      5-min Rain = 0
KVA1 270637Z 22008KT 16/12 A3015 RMK A01 T01550117  RH  079%=      5-min Rain = 0
KVA1 270638Z 22009KT 16/12 A3015 RMK A01 T01560117  RH  078%=      5-min Rain = 0
KVA1 270639Z 22009KT 16/12 A3015 RMK A01 T01560117  RH  077%=      5-min Rain = 0
KVA1 270640Z 22009KT 16/12 A3015 RMK A01 T01570116  RH  077%=      5-min Rain = 0
KVA1 270641Z 23009KT 16/12 A3015 RMK A01 T01570116  RH  077%=      5-min Rain = 0
KVA1 270642Z 23009KT 16/12 A3015 RMK A01 T01570117  RH  077%=      5-min Rain = 0
KVA1 270643Z 23009KT 16/12 A3015 RMK A01 T01570116  RH  077%=      5-min Rain = 0
KVA1 270644Z 23009KT 16/12 A3016 RMK A01 T01570117  RH  077%=      5-min Rain = 0
KVA1 270645Z 23008KT 16/12 A3016 RMK A01 T01570118  RH  077%=      5-min Rain = 0
KVA1 270646Z 23009KT 16/12 A3016 RMK A01 T01570118  RH  077%=      5-min Rain = 0
KVA1 270647Z 23008KT 16/12 A3016 RMK A01 T01570118  RH  077%=      5-min Rain = 0
KVA1 270648Z 23007KT 16/12 A3016 RMK A01 T01570119  RH  078%=      5-min Rain = 0
KVA1 270649Z 23007KT 16/12 A3016 RMK A01 T01570119  RH  078%=      5-min Rain = 0
KVA1 270650Z 23006KT 16/12 A3016 RMK A01 T01570120  RH  079%=      5-min Rain = 0
KVA1 270651Z 23005KT 16/12 A3016 RMK A01 T01560121  RH  080%=      5-min Rain = 0
KVA1 270652Z 23006KT 16/12 A3016 RMK A01 T01550121  RH  080%=      5-min Rain = 0
KVA1 270653Z 23005KT 16/12 A3015 RMK A01 T01550121  RH  080%=      5-min Rain = 0
KVA1 270654Z 22007KT 16/12 A3016 RMK A01 T01560121  RH  080%=      5-min Rain = 0
KVA1 270655Z 22006KT 16/12 A3016 RMK A01 T01570121  RH  079%=      5-min Rain = 0
KVA1 270656Z 23006KT 16/12 A3016 RMK A01 T01570122  RH  079%=      5-min Rain = 0
KVA1 270657Z 23006KT 16/12 A3016 RMK A01 T01570122  RH  079%=      5-min Rain = 0
KVA1 270658Z 23007KT 16/12 A3015 RMK A01 T01570123  RH  080%=      5-min Rain = 0
KVA1 270659Z 22008KT 16/12 A3015 RMK A01 T01570123  RH  081%=      5-min Rain = 0
KVA1 270700Z 23007KT 16/12 A3015 RMK A01 T01570122  RH  080%=      5-min Rain = 0
KVA1 270701Z 22006KT 16/12 A3015 RMK A01 T01570122  RH  080%=      5-min Rain = 0
KVA1 270702Z 22006KT 16/12 A3015 RMK A01 T01580123  RH  080%=      5-min Rain = 0
KVA1 270703Z 22006KT 16/12 A3015 RMK A01 T01570123  RH  080%=      5-min Rain = 0
KVA1 270704Z 22006KT 16/12 A3015 RMK A01 T01570123  RH  080%=      5-min Rain = 0
KVA1 270705Z 21006KT 16/12 A3015 RMK A01 T01580122  RH  079%=      5-min Rain = 0
KVA1 270706Z 21005KT 16/12 A3015 RMK A01 T01580121  RH  079%=      5-min Rain = 0
KVA1 270707Z 22006KT 16/12 A3015 RMK A01 T01590122  RH  079%=      5-min Rain = 0
KVA1 270708Z 22007KT 16/12 A3015 RMK A01 T01590121  RH  078%=      5-min Rain = 0
KVA1 270709Z 21007KT 16/12 A3015 RMK A01 T01590120  RH  077%=      5-min Rain = 0
KVA1 270710Z 22004KT 16/12 A3015 RMK A01 T01600121  RH  077%=      5-min Rain = 0
KVA1 270711Z 22005KT 16/12 A3015 RMK A01 T01610121  RH  077%=      5-min Rain = 0
KVA1 270712Z 23005KT 16/12 A3015 RMK A01 T01600122  RH  078%=      5-min Rain = 0
KVA1 270713Z 22007KT 16/12 A3015 RMK A01 T01590122  RH  078%=      5-min Rain = 0
KVA1 270714Z 24006KT 16/12 A3015 RMK A01 T01580122  RH  079%=      5-min Rain = 0
KVA1 270715Z 25005KT 16/12 A3015 RMK A01 T01580123  RH  080%=      5-min Rain = 0
KVA1 270716Z 25006KT 16/12 A3015 RMK A01 T01570123  RH  080%=      5-min Rain = 0
KVA1 270717Z 24005KT 16/12 A3015 RMK A01 T01560123  RH  081%=      5-min Rain = 0
KVA1 270718Z 24004KT 16/12 A3015 RMK A01 T01550123  RH  081%=      5-min Rain = 0
KVA1 270719Z 24005KT 15/12 A3015 RMK A01 T01540123  RH  082%=      5-min Rain = 0
KVA1 270720Z 22005KT 15/12 A3015 RMK A01 T01540123  RH  082%=      5-min Rain = 0
KVA1 270721Z 23004KT 15/12 A3015 RMK A01 T01540123  RH  082%=      5-min Rain = 0
KVA1 270722Z 22006KT 15/12 A3015 RMK A01 T01540123  RH  082%=      5-min Rain = 0
KVA1 270723Z 22006KT 15/12 A3015 RMK A01 T01540121  RH  081%=      5-min Rain = 0
KVA1 270724Z 22004KT 16/12 A3015 RMK A01 T01550121  RH  080%=      5-min Rain = 0
KVA1 270725Z 22005KT 16/12 A3015 RMK A01 T01560121  RH  080%=      5-min Rain = 0
KVA1 270726Z 22005KT 16/12 A3015 RMK A01 T01560120  RH  079%=      5-min Rain = 0
KVA1 270727Z 21005KT 16/12 A3015 RMK A01 T01560120  RH  079%=      5-min Rain = 0
KVA1 270728Z 22005KT 16/12 A3014 RMK A01 T01570119  RH  078%=      5-min Rain = 0
KVA1 270729Z 18008KT 16/12 A3014 RMK A01 T01580118  RH  077%=      5-min Rain = 0
KVA1 270730Z 20006KT 16/12 A3014 RMK A01 T01600117  RH  075%=      5-min Rain = 0
KVA1 270731Z 22005KT 16/12 A3015 RMK A01 T01610118  RH  076%=      5-min Rain = 0
KVA1 270732Z 22004KT 16/12 A3014 RMK A01 T01610120  RH  076%=      5-min Rain = 0
KVA1 270733Z 22005KT 16/12 A3014 RMK A01 T01600118  RH  076%=      5-min Rain = 0
KVA1 270734Z 21005KT 16/12 A3014 RMK A01 T01590119  RH  077%=      5-min Rain = 0
KVA1 270735Z 22006KT 16/12 A3014 RMK A01 T01580118  RH  077%=      5-min Rain = 0
KVA1 270736Z 23005KT 16/12 A3014 RMK A01 T01580118  RH  077%=      5-min Rain = 0
KVA1 270737Z 23006KT 16/12 A3014 RMK A01 T01580118  RH  077%=      5-min Rain = 0
KVA1 270738Z 23006KT 16/12 A3014 RMK A01 T01580118  RH  077%=      5-min Rain = 0
KVA1 270739Z 24006KT 16/12 A3014 RMK A01 T01580118  RH  077%=      5-min Rain = 0
KVA1 270740Z 24005KT 16/12 A3014 RMK A01 T01580118  RH  077%=      5-min Rain = 0
KVA1 270741Z 24005KT 16/12 A3014 RMK A01 T01570118  RH  077%=      5-min Rain = 0
KVA1 270742Z 24005KT 16/12 A3014 RMK A01 T01570118  RH  077%=      5-min Rain = 0
KVA1 270743Z 25007KT 16/12 A3014 RMK A01 T01570117  RH  077%=      5-min Rain = 0
KVA1 270744Z 24006KT 16/12 A3015 RMK A01 T01570118  RH  077%=      5-min Rain = 0
KVA1 270745Z 25006KT 16/12 A3015 RMK A01 T01570118  RH  077%=      5-min Rain = 0
KVA1 270746Z 26008KT 16/12 A3015 RMK A01 T01570118  RH  078%=      5-min Rain = 0
KVA1 270747Z 26007KT 16/12 A3015 RMK A01 T01560118  RH  078%=      5-min Rain = 0
KVA1 270748Z 26006KT 16/12 A3015 RMK A01 T01560118  RH  078%=      5-min Rain = 0
KVA1 270749Z 25008KT 16/12 A3015 RMK A01 T01550118  RH  079%=      5-min Rain = 0
KVA1 270750Z 26008KT 16/12 A3015 RMK A01 T01550118  RH  079%=      5-min Rain = 0
KVA1 270751Z 26007KT 16/12 A3015 RMK A01 T01550118  RH  078%=      5-min Rain = 0
KVA1 270752Z 26005KT 16/12 A3015 RMK A01 T01550118  RH  079%=      5-min Rain = 0
KVA1 270753Z 26006KT 15/12 A3015 RMK A01 T01540118  RH  079%=      5-min Rain = 0
KVA1 270754Z 26005KT 15/12 A3015 RMK A01 T01540118  RH  079%=      5-min Rain = 0
KVA1 270755Z 26006KT 15/12 A3015 RMK A01 T01540118  RH  079%=      5-min Rain = 0
KVA1 270756Z 26006KT 15/12 A3015 RMK A01 T01530117  RH  079%=      5-min Rain = 0
KVA1 270757Z 26007KT 15/12 A3015 RMK A01 T01530117  RH  079%=      5-min Rain = 0
KVA1 270758Z 26005KT 15/12 A3015 RMK A01 T01530117  RH  079%=      5-min Rain = 0
KVA1 270759Z 27005KT 15/12 A3015 RMK A01 T01530117  RH  079%=      5-min Rain = 0
KVA1 270800Z 26007KT 15/12 A3015 RMK A01 T01530117  RH  079%=      5-min Rain = 0
KVA1 270801Z 26007KT 15/12 A3015 RMK A01 T01530117  RH  079%=      5-min Rain = 0
KVA1 270802Z 26006KT 15/12 A3015 RMK A01 T01530116  RH  079%=      5-min Rain = 0
KVA1 270803Z 27006KT 15/12 A3015 RMK A01 T01530117  RH  079%=      5-min Rain = 0
KVA1 270804Z 26006KT 15/12 A3015 RMK A01 T01530116  RH  079%=      5-min Rain = 0
KVA1 270805Z 26005KT 15/12 A3014 RMK A01 T01530116  RH  079%=      5-min Rain = 0
KVA1 270806Z 26006KT 15/12 A3014 RMK A01 T01530115  RH  078%=      5-min Rain = 0
KVA1 270807Z 24006KT 15/12 A3014 RMK A01 T01530116  RH  078%=      5-min Rain = 0
KVA1 270808Z 25005KT 15/12 A3014 RMK A01 T01530116  RH  078%=      5-min Rain = 0
KVA1 270809Z 24004KT 15/12 A3014 RMK A01 T01530116  RH  078%=      5-min Rain = 0
KVA1 270810Z 23004KT 15/12 A3014 RMK A01 T01530116  RH  078%=      5-min Rain = 0
KVA1 270811Z 23004KT 15/12 A3014 RMK A01 T01530116  RH  079%=      5-min Rain = 0
KVA1 270812Z 24006KT 15/12 A3014 RMK A01 T01530115  RH  078%=      5-min Rain = 0
KVA1 270813Z 24006KT 15/12 A3014 RMK A01 T01530115  RH  078%=      5-min Rain = 0
KVA1 270814Z 24006KT 15/12 A3014 RMK A01 T01530115  RH  078%=      5-min Rain = 0
KVA1 270815Z 24004KT 15/12 A3014 RMK A01 T01530115  RH  078%=      5-min Rain = 0
KVA1 270816Z 23004KT 15/12 A3014 RMK A01 T01530116  RH  078%=      5-min Rain = 0
KVA1 270817Z 23005KT 15/12 A3014 RMK A01 T01530116  RH  078%=      5-min Rain = 0
KVA1 270818Z 24005KT 15/12 A3014 RMK A01 T01530116  RH  079%=      5-min Rain = 0
KVA1 270819Z 24006KT 15/12 A3014 RMK A01 T01530116  RH  078%=      5-min Rain = 0
KVA1 270820Z 24005KT 15/12 A3014 RMK A01 T01520115  RH  078%=      5-min Rain = 0
KVA1 270821Z 24005KT 15/12 A3014 RMK A01 T01520115  RH  079%=      5-min Rain = 0
KVA1 270822Z 25006KT 15/12 A3014 RMK A01 T01520116  RH  079%=      5-min Rain = 0
KVA1 270823Z 24007KT 15/12 A3014 RMK A01 T01520116  RH  079%=      5-min Rain = 0
KVA1 270824Z 24007KT 15/12 A3015 RMK A01 T01520116  RH  079%=      5-min Rain = 0
KVA1 270825Z 25007KT 15/12 A3015 RMK A01 T01520115  RH  078%=      5-min Rain = 0
KVA1 270826Z 24006KT 15/12 A3015 RMK A01 T01530115  RH  078%=      5-min Rain = 0
KVA1 270827Z 23005KT 15/12 A3015 RMK A01 T01530116  RH  079%=      5-min Rain = 0
KVA1 270828Z 22006KT 15/12 A3015 RMK A01 T01530116  RH  079%=      5-min Rain = 0
KVA1 270829Z 23007KT 15/12 A3014 RMK A01 T01530115  RH  078%=      5-min Rain = 0
KVA1 270830Z 22008KT 15/12 A3014 RMK A01 T01530115  RH  078%=      5-min Rain = 0
KVA1 270831Z 22007KT 15/12 A3014 RMK A01 T01540115  RH  077%=      5-min Rain = 0
KVA1 270832Z 21006KT 15/12 A3014 RMK A01 T01540115  RH  077%=      5-min Rain = 0
KVA1 270833Z 21008KT 15/12 A3014 RMK A01 T01540115  RH  077%=      5-min Rain = 0
KVA1 270834Z 21008KT 16/12 A3014 RMK A01 T01550115  RH  077%=      5-min Rain = 0
KVA1 270835Z 21008KT 16/11 A3014 RMK A01 T01550114  RH  077%=      5-min Rain = 0
KVA1 270836Z 20009KT 16/11 A3014 RMK A01 T01550114  RH  076%=      5-min Rain = 0
KVA1 270837Z 21009KT 16/11 A3014 RMK A01 T01560114  RH  076%=      5-min Rain = 0
KVA1 270838Z 20011KT 16/11 A3014 RMK A01 T01570114  RH  076%=      5-min Rain = 0
KVA1 270839Z 20010KT 16/11 A3014 RMK A01 T01570114  RH  076%=      5-min Rain = 0
KVA1 270840Z 20010KT 16/11 A3014 RMK A01 T01570114  RH  076%=      5-min Rain = 0
KVA1 270841Z 21011KT 16/11 A3014 RMK A01 T01570114  RH  076%=      5-min Rain = 0
KVA1 270842Z 21011KT 16/11 A3014 RMK A01 T01570114  RH  075%=      5-min Rain = 0
KVA1 270843Z 21012KT 16/11 A3014 RMK A01 T01570114  RH  075%=      5-min Rain = 0
KVA1 270844Z 20013KT 16/11 A3013 RMK A01 T01580114  RH  075%=      5-min Rain = 0
KVA1 270845Z 20010KT 16/11 A3013 RMK A01 T01580113  RH  075%=      5-min Rain = 0
KVA1 270846Z 20011KT 16/11 A3013 RMK A01 T01580114  RH  075%=      5-min Rain = 0
KVA1 270847Z 20011KT 16/11 A3013 RMK A01 T01580113  RH  075%=      5-min Rain = 0
KVA1 270848Z 20010KT 16/11 A3013 RMK A01 T01580113  RH  075%=      5-min Rain = 0
KVA1 270849Z 20010KT 16/11 A3013 RMK A01 T01580114  RH  075%=      5-min Rain = 0
KVA1 270850Z 20009KT 16/11 A3013 RMK A01 T01580114  RH  075%=      5-min Rain = 0
KVA1 270851Z 20010KT 16/11 A3013 RMK A01 T01580114  RH  075%=      5-min Rain = 0
KVA1 270852Z 20010KT 16/11 A3013 RMK A01 T01570114  RH  075%=      5-min Rain = 0
KVA1 270853Z 20008KT 16/11 A3013 RMK A01 T01570114  RH  076%=      5-min Rain = 0
KVA1 270854Z 21008KT 16/11 A3013 RMK A01 T01560114  RH  076%=      5-min Rain = 0
KVA1 270855Z 21007KT 16/11 A3013 RMK A01 T01560114  RH  076%=      5-min Rain = 0
KVA1 270856Z 21007KT 16/11 A3013 RMK A01 T01550114  RH  076%=      5-min Rain = 0
KVA1 270857Z 21007KT 16/11 A3013 RMK A01 T01550114  RH  077%=      5-min Rain = 0
KVA1 270858Z 20006KT 15/11 A3013 RMK A01 T01540114  RH  077%=      5-min Rain = 0
KVA1 270859Z 20009G14KT 15/11 A3013 RMK A01 T01540114  RH  077%=      5-min Rain = 0
KVA1 270900Z 21008KT 15/11 A3013 RMK A01 T01540114  RH  077%=      5-min Rain = 0
KVA1 270901Z 21007KT 15/11 A3013 RMK A01 T01540114  RH  077%=      5-min Rain = 0
KVA1 270902Z 20009KT 15/11 A3013 RMK A01 T01540114  RH  077%=      5-min Rain = 0
KVA1 270903Z 21008KT 15/11 A3013 RMK A01 T01540114  RH  077%=      5-min Rain = 0
KVA1 270904Z 21009KT 15/11 A3013 RMK A01 T01530114  RH  077%=      5-min Rain = 0
KVA1 270905Z 20008KT 15/11 A3013 RMK A01 T01530114  RH  077%=      5-min Rain = 0
KVA1 270906Z 21010KT 15/11 A3013 RMK A01 T01530113  RH  077%=      5-min Rain = 0
KVA1 270907Z 20010KT 15/11 A3013 RMK A01 T01540113  RH  076%=      5-min Rain = 0
KVA1 270908Z 20008KT 16/11 A3013 RMK A01 T01550113  RH  076%=      5-min Rain = 0
KVA1 270909Z 21009KT 16/11 A3013 RMK A01 T01550113  RH  076%=      5-min Rain = 0
KVA1 270910Z 20008KT 16/11 A3013 RMK A01 T01550114  RH  077%=      5-min Rain = 0
KVA1 270911Z 20009KT 15/11 A3013 RMK A01 T01540113  RH  077%=      5-min Rain = 0
KVA1 270912Z 20010KT 15/11 A3013 RMK A01 T01540113  RH  076%=      5-min Rain = 0
KVA1 270913Z 21009KT 15/11 A3013 RMK A01 T01540112  RH  076%=      5-min Rain = 0
KVA1 270914Z 20008KT 15/11 A3013 RMK A01 T01540113  RH  076%=      5-min Rain = 0
KVA1 270915Z 21008KT 15/11 A3013 RMK A01 T01540113  RH  076%=      5-min Rain = 0
KVA1 270916Z 21008KT 15/11 A3013 RMK A01 T01540113  RH  077%=      5-min Rain = 0
KVA1 270917Z 21009KT 15/11 A3013 RMK A01 T01530113  RH  077%=      5-min Rain = 0
KVA1 270918Z 21008KT 15/11 A3013 RMK A01 T01530113  RH  077%=      5-min Rain = 0
KVA1 270919Z 21007KT 15/11 A3013 RMK A01 T01530113  RH  077%=      5-min Rain = 0
KVA1 270920Z 20008KT 15/11 A3013 RMK A01 T01530113  RH  077%=      5-min Rain = 0
KVA1 270921Z 21007KT 15/11 A3013 RMK A01 T01520113  RH  077%=      5-min Rain = 0
KVA1 270922Z 21006KT 15/11 A3013 RMK A01 T01520112  RH  077%=      5-min Rain = 0
KVA1 270923Z 21005KT 15/11 A3013 RMK A01 T01530113  RH  077%=      5-min Rain = 0
KVA1 270924Z 21006KT 15/11 A3013 RMK A01 T01520113  RH  077%=      5-min Rain = 0
KVA1 270925Z 21005KT 15/11 A3013 RMK A01 T01510112  RH  078%=      5-min Rain = 0
KVA1 270926Z 21006KT 15/11 A3013 RMK A01 T01510113  RH  078%=      5-min Rain = 0
KVA1 270927Z 21006KT 15/11 A3012 RMK A01 T01500113  RH  078%=      5-min Rain = 0
KVA1 270928Z 22006KT 15/11 A3012 RMK A01 T01500112  RH  078%=      5-min Rain = 0
KVA1 270929Z 22006KT 15/11 A3012 RMK A01 T01500112  RH  078%=      5-min Rain = 0
KVA1 270930Z 22005KT 15/11 A3012 RMK A01 T01500112  RH  078%=      5-min Rain = 0
KVA1 270931Z 23006KT 15/11 A3012 RMK A01 T01490113  RH  079%=      5-min Rain = 0
KVA1 270932Z 23005KT 15/11 A3012 RMK A01 T01480112  RH  079%=      5-min Rain = 0
KVA1 270933Z 22005KT 15/11 A3012 RMK A01 T01480112  RH  079%=      5-min Rain = 0
KVA1 270934Z 22004KT 15/11 A3013 RMK A01 T01480112  RH  079%=      5-min Rain = 0
KVA1 270935Z 22004KT 15/11 A3012 RMK A01 T01480112  RH  079%=      5-min Rain = 0
KVA1 270936Z 22003KT 15/11 A3012 RMK A01 T01470112  RH  079%=      5-min Rain = 0
KVA1 270937Z 22003KT 15/11 A3012 RMK A01 T01470112  RH  079%=      5-min Rain = 0
KVA1 270938Z 22003KT 15/11 A3012 RMK A01 T01480112  RH  079%=      5-min Rain = 0
KVA1 270939Z 22002KT 15/11 A3012 RMK A01 T01470112  RH  080%=      5-min Rain = 0
KVA1 270940Z 22004KT 15/11 A3012 RMK A01 T01460112  RH  080%=      5-min Rain = 0
KVA1 270941Z 23004KT 15/11 A3012 RMK A01 T01460112  RH  080%=      5-min Rain = 0
KVA1 270942Z 23004KT 15/11 A3012 RMK A01 T01460112  RH  080%=      5-min Rain = 0
KVA1 270943Z 23004KT 15/11 A3012 RMK A01 T01460112  RH  080%=      5-min Rain = 0
KVA1 270944Z 24004KT 15/11 A3012 RMK A01 T01460112  RH  080%=      5-min Rain = 0
KVA1 270945Z 23005KT 15/11 A3012 RMK A01 T01460112  RH  080%=      5-min Rain = 0
KVA1 270946Z 23005KT 15/11 A3012 RMK A01 T01450111  RH  080%=      5-min Rain = 0
KVA1 270947Z 24006KT 15/11 A3012 RMK A01 T01460111  RH  080%=      5-min Rain = 0
KVA1 270948Z 23005KT 15/11 A3012 RMK A01 T01460111  RH  079%=      5-min Rain = 0
KVA1 270949Z 23005KT 15/11 A3012 RMK A01 T01460111  RH  080%=      5-min Rain = 0
KVA1 270950Z 23006KT 15/11 A3012 RMK A01 T01460112  RH  080%=      5-min Rain = 0
KVA1 270951Z 23007KT 15/11 A3012 RMK A01 T01450111  RH  080%=      5-min Rain = 0
KVA1 270952Z 24007KT 15/11 A3012 RMK A01 T01450111  RH  080%=      5-min Rain = 0
KVA1 270953Z 23006KT 15/11 A3012 RMK A01 T01450111  RH  080%=      5-min Rain = 0
KVA1 270954Z 23007KT 15/11 A3012 RMK A01 T01460111  RH  079%=      5-min Rain = 0
KVA1 270955Z 23005KT 15/11 A3012 RMK A01 T01460110  RH  079%=      5-min Rain = 0
KVA1 270956Z 23008KT 15/11 A3012 RMK A01 T01460110  RH  079%=      5-min Rain = 0
KVA1 270957Z 22008KT 15/11 A3012 RMK A01 T01460110  RH  079%=      5-min Rain = 0
KVA1 270958Z 23008KT 15/11 A3012 RMK A01 T01470110  RH  079%=      5-min Rain = 0
KVA1 270959Z 23006KT 15/11 A3012 RMK A01 T01480110  RH  078%=      5-min Rain = 0
KVA1 271000Z 23007KT 15/11 A3012 RMK A01 T01480110  RH  078%=      5-min Rain = 0
KVA1 271001Z 23007KT 15/11 A3012 RMK A01 T01480110  RH  078%=      5-min Rain = 0
KVA1 271002Z 23005KT 15/11 A3012 RMK A01 T01480110  RH  078%=      5-min Rain = 0
KVA1 271003Z 24008KT 15/11 A3012 RMK A01 T01480110  RH  078%=      5-min Rain = 0
KVA1 271004Z 23008KT 15/11 A3012 RMK A01 T01480111  RH  078%=      5-min Rain = 0
KVA1 271005Z 22008KT 15/11 A3012 RMK A01 T01470110  RH  078%=      5-min Rain = 0
KVA1 271006Z 23008KT 15/11 A3012 RMK A01 T01470110  RH  078%=      5-min Rain = 0
KVA1 271007Z 24007KT 15/11 A3012 RMK A01 T01470110  RH  079%=      5-min Rain = 0
KVA1 271008Z 23007KT 15/11 A3012 RMK A01 T01470110  RH  079%=      5-min Rain = 0
KVA1 271009Z 23008KT 15/11 A3012 RMK A01 T01460110  RH  079%=      5-min Rain = 0
KVA1 271010Z 23009KT 15/11 A3012 RMK A01 T01460111  RH  079%=      5-min Rain = 0
KVA1 271011Z 23008KT 15/11 A3012 RMK A01 T01460111  RH  079%=      5-min Rain = 0
KVA1 271012Z 23008KT 15/11 A3012 RMK A01 T01460110  RH  079%=      5-min Rain = 0
KVA1 271013Z 23007KT 15/11 A3012 RMK A01 T01460110  RH  079%=      5-min Rain = 0
KVA1 271014Z 23007KT 15/11 A3012 RMK A01 T01460110  RH  079%=      5-min Rain = 0
KVA1 271015Z 23007KT 15/11 A3012 RMK A01 T01460110  RH  079%=      5-min Rain = 0
KVA1 271016Z 23005KT 15/11 A3012 RMK A01 T01450110  RH  079%=      5-min Rain = 0
KVA1 271017Z 24006KT 15/11 A3012 RMK A01 T01450110  RH  080%=      5-min Rain = 0
KVA1 271018Z 22006KT 14/11 A3012 RMK A01 T01440110  RH  080%=      5-min Rain = 0
KVA1 271019Z 22005KT 14/11 A3012 RMK A01 T01440110  RH  080%=      5-min Rain = 0
KVA1 271020Z 23007KT 14/11 A3012 RMK A01 T01440110  RH  080%=      5-min Rain = 0
KVA1 271021Z 23007KT 14/11 A3012 RMK A01 T01440110  RH  080%=      5-min Rain = 0
KVA1 271022Z 23005KT 14/11 A3012 RMK A01 T01440110  RH  080%=      5-min Rain = 0
KVA1 271023Z 24005KT 14/11 A3012 RMK A01 T01440110  RH  080%=      5-min Rain = 0
KVA1 271024Z 23006KT 14/11 A3012 RMK A01 T01440110  RH  080%=      5-min Rain = 0
KVA1 271025Z 23006KT 14/11 A3012 RMK A01 T01430110  RH  080%=      5-min Rain = 0
KVA1 271026Z 24006KT 14/11 A3012 RMK A01 T01420109  RH  081%=      5-min Rain = 0
KVA1 271027Z 24006KT 14/11 A3012 RMK A01 T01420110  RH  081%=      5-min Rain = 0
KVA1 271028Z 24006KT 14/11 A3012 RMK A01 T01420110  RH  081%=      5-min Rain = 0
KVA1 271029Z 24005KT 14/11 A3012 RMK A01 T01410109  RH  081%=      5-min Rain = 0
KVA1 271030Z 25005KT 14/11 A3012 RMK A01 T01400109  RH  082%=      5-min Rain = 0
KVA1 271031Z 25005KT 14/11 A3012 RMK A01 T01400109  RH  082%=      5-min Rain = 0
KVA1 271032Z 25005KT 14/11 A3012 RMK A01 T01400110  RH  082%=      5-min Rain = 0
KVA1 271033Z 25005KT 14/11 A3012 RMK A01 T01390109  RH  082%=      5-min Rain = 0
KVA1 271034Z 25005KT 14/11 A3012 RMK A01 T01390109  RH  082%=      5-min Rain = 0
KVA1 271035Z 25005KT 14/11 A3012 RMK A01 T01390109  RH  082%=      5-min Rain = 0
KVA1 271036Z 25004KT 14/11 A3012 RMK A01 T01380109  RH  082%=      5-min Rain = 0
KVA1 271037Z 24004KT 14/11 A3012 RMK A01 T01390109  RH  083%=      5-min Rain = 0
KVA1 271038Z 24004KT 14/11 A3012 RMK A01 T01380109  RH  083%=      5-min Rain = 0
KVA1 271039Z 24004KT 14/11 A3012 RMK A01 T01380109  RH  083%=      5-min Rain = 0
KVA1 271040Z 24004KT 14/11 A3012 RMK A01 T01380109  RH  083%=      5-min Rain = 0
KVA1 271041Z 23005KT 14/11 A3012 RMK A01 T01370109  RH  083%=      5-min Rain = 0
KVA1 271042Z 23003KT 14/11 A3012 RMK A01 T01380109  RH  083%=      5-min Rain = 0
KVA1 271043Z 23004KT 14/11 A3012 RMK A01 T01380108  RH  083%=      5-min Rain = 0
KVA1 271044Z 24003KT 14/11 A3012 RMK A01 T01380109  RH  083%=      5-min Rain = 0
KVA1 271045Z 23004KT 14/11 A3012 RMK A01 T01370109  RH  083%=      5-min Rain = 0
KVA1 271046Z 23004KT 14/11 A3012 RMK A01 T01370108  RH  083%=      5-min Rain = 0
KVA1 271047Z 23004KT 14/11 A3012 RMK A01 T01360108  RH  083%=      5-min Rain = 0
KVA1 271048Z 22004KT 14/11 A3012 RMK A01 T01360108  RH  083%=      5-min Rain = 0
KVA1 271049Z 22004KT 14/11 A3012 RMK A01 T01360108  RH  083%=      5-min Rain = 0
KVA1 271050Z 22003KT 14/11 A3012 RMK A01 T01360108  RH  083%=      5-min Rain = 0
KVA1 271051Z 21004KT 14/11 A3012 RMK A01 T01360108  RH  083%=      5-min Rain = 0
KVA1 271052Z 21004KT 14/11 A3012 RMK A01 T01360108  RH  083%=      5-min Rain = 0
KVA1 271053Z 21004KT 14/11 A3012 RMK A01 T01360108  RH  083%=      5-min Rain = 0
KVA1 271054Z 21004KT 14/11 A3012 RMK A01 T01360108  RH  083%=      5-min Rain = 0
KVA1 271055Z 21005KT 14/11 A3013 RMK A01 T01360108  RH  083%=      5-min Rain = 0
KVA1 271056Z 21004KT 14/11 A3013 RMK A01 T01360107  RH  083%=      5-min Rain = 0
KVA1 271057Z 21005KT 14/11 A3013 RMK A01 T01360108  RH  083%=      5-min Rain = 0
KVA1 271058Z 20004KT 14/11 A3013 RMK A01 T01360108  RH  083%=      5-min Rain = 0
KVA1 271059Z 21005KT 14/11 A3013 RMK A01 T01360107  RH  083%=      5-min Rain = 0
KVA1 271100Z 20005KT 14/11 A3013 RMK A01 T01360107  RH  083%=      5-min Rain = 0
KVA1 271101Z 21004KT 14/11 A3013 RMK A01 T01360107  RH  083%=      5-min Rain = 0
KVA1 271102Z 21004KT 14/11 A3013 RMK A01 T01360107  RH  083%=      5-min Rain = 0
KVA1 271103Z 21004KT 14/11 A3013 RMK A01 T01360107  RH  083%=      5-min Rain = 0
KVA1 271104Z 20004KT 14/11 A3013 RMK A01 T01350107  RH  083%=      5-min Rain = 0
KVA1 271105Z 20004KT 14/11 A3013 RMK A01 T01350107  RH  083%=      5-min Rain = 0
KVA1 271106Z 21003KT 14/11 A3013 RMK A01 T01350107  RH  083%=      5-min Rain = 0
KVA1 271107Z 21004KT 14/11 A3013 RMK A01 T01350107  RH  083%=      5-min Rain = 0
KVA1 271108Z 21004KT 14/11 A3013 RMK A01 T01350107  RH  083%=      5-min Rain = 0
KVA1 271109Z 22003KT 14/11 A3013 RMK A01 T01350107  RH  083%=      5-min Rain = 0
KVA1 271110Z 22004KT 14/11 A3013 RMK A01 T01350107  RH  083%=      5-min Rain = 0
KVA1 271111Z 22004KT 13/11 A3013 RMK A01 T01340106  RH  083%=      5-min Rain = 0
KVA1 271112Z 21004KT 14/11 A3013 RMK A01 T01350106  RH  083%=      5-min Rain = 0
KVA1 271113Z 21004KT 13/11 A3013 RMK A01 T01340106  RH  083%=      5-min Rain = 0
KVA1 271114Z 21005KT 13/11 A3013 RMK A01 T01340106  RH  083%=      5-min Rain = 0
KVA1 271115Z 21004KT 13/11 A3013 RMK A01 T01340106  RH  083%=      5-min Rain = 0
KVA1 271116Z 21003KT 13/11 A3013 RMK A01 T01340106  RH  083%=      5-min Rain = 0
KVA1 271117Z 20004KT 13/11 A3013 RMK A01 T01340106  RH  083%=      5-min Rain = 0
KVA1 271118Z 20004KT 13/11 A3013 RMK A01 T01340106  RH  083%=      5-min Rain = 0
KVA1 271119Z 21004KT 13/11 A3013 RMK A01 T01340106  RH  083%=      5-min Rain = 0
KVA1 271120Z 21004KT 13/11 A3013 RMK A01 T01340106  RH  083%=      5-min Rain = 0
KVA1 271121Z 21004KT 13/11 A3013 RMK A01 T01340106  RH  083%=      5-min Rain = 0
KVA1 271122Z 20004KT 13/11 A3013 RMK A01 T01330106  RH  083%=      5-min Rain = 0
KVA1 271123Z 21005KT 13/11 A3013 RMK A01 T01330106  RH  084%=      5-min Rain = 0
KVA1 271124Z 20004KT 13/11 A3013 RMK A01 T01330106  RH  084%=      5-min Rain = 0
KVA1 271125Z 20005KT 13/11 A3013 RMK A01 T01330106  RH  084%=      5-min Rain = 0
KVA1 271126Z 20005KT 13/11 A3013 RMK A01 T01330106  RH  084%=      5-min Rain = 0
KVA1 271127Z 20005KT 13/11 A3013 RMK A01 T01330106  RH  084%=      5-min Rain = 0
KVA1 271128Z 21004KT 13/11 A3013 RMK A01 T01320106  RH  084%=      5-min Rain = 0
KVA1 271129Z 20004KT 13/11 A3013 RMK A01 T01330106  RH  084%=      5-min Rain = 0
KVA1 271130Z 20005KT 13/11 A3013 RMK A01 T01330106  RH  084%=      5-min Rain = 0
KVA1 271131Z 21005KT 13/11 A3013 RMK A01 T01330106  RH  084%=      5-min Rain = 0
KVA1 271132Z 21005KT 13/11 A3013 RMK A01 T01320106  RH  084%=      5-min Rain = 0
KVA1 271133Z 21005KT 13/11 A3013 RMK A01 T01320106  RH  085%=      5-min Rain = 0
KVA1 271134Z 20005KT 13/11 A3013 RMK A01 T01320106  RH  084%=      5-min Rain = 0
KVA1 271135Z 20005KT 13/11 A3013 RMK A01 T01320106  RH  084%=      5-min Rain = 0
KVA1 271136Z 21005KT 13/11 A3013 RMK A01 T01320106  RH  084%=      5-min Rain = 0
KVA1 271137Z 21005KT 13/11 A3014 RMK A01 T01320106  RH  084%=      5-min Rain = 0
KVA1 271138Z 21005KT 13/11 A3014 RMK A01 T01320106  RH  084%=      5-min Rain = 0
KVA1 271139Z 21006KT 13/11 A3014 RMK A01 T01320106  RH  084%=      5-min Rain = 0
KVA1 271140Z 21005KT 13/11 A3014 RMK A01 T01320106  RH  084%=      5-min Rain = 0
KVA1 271141Z 21005KT 13/11 A3014 RMK A01 T01320106  RH  085%=      5-min Rain = 0
KVA1 271142Z 21005KT 13/11 A3014 RMK A01 T01310106  RH  085%=      5-min Rain = 0
KVA1 271143Z 21005KT 13/11 A3014 RMK A01 T01310106  RH  085%=      5-min Rain = 0
KVA1 271144Z 21005KT 13/11 A3013 RMK A01 T01310106  RH  085%=      5-min Rain = 0
KVA1 271145Z 22005KT 13/11 A3013 RMK A01 T01310106  RH  085%=      5-min Rain = 0
KVA1 271146Z 22004KT 13/11 A3013 RMK A01 T01310106  RH  085%=      5-min Rain = 0
KVA1 271147Z 22005KT 13/11 A3013 RMK A01 T01300106  RH  085%=      5-min Rain = 0
KVA1 271148Z 22005KT 13/11 A3013 RMK A01 T01300105  RH  085%=      5-min Rain = 0
KVA1 271149Z 23004KT 13/11 A3013 RMK A01 T01290105  RH  085%=      5-min Rain = 0
KVA1 271150Z 23005KT 13/11 A3014 RMK A01 T01280105  RH  086%=      5-min Rain = 0
KVA1 271151Z 23005KT 13/11 A3014 RMK A01 T01280105  RH  086%=      5-min Rain = 0
KVA1 271152Z 24004KT 13/11 A3014 RMK A01 T01280105  RH  086%=      5-min Rain = 0
KVA1 271153Z 24005KT 13/11 A3014 RMK A01 T01270105  RH  086%=      5-min Rain = 0
KVA1 271154Z 25004KT 13/11 A3014 RMK A01 T01270105  RH  087%=      5-min Rain = 0
KVA1 271155Z 25004KT 13/11 A3014 RMK A01 T01260105  RH  087%=      5-min Rain = 0
KVA1 271156Z 26005KT 13/11 A3014 RMK A01 T01260105  RH  087%=      5-min Rain = 0
KVA1 271157Z 25005KT 13/10 A3014 RMK A01 T01250104  RH  087%=      5-min Rain = 0
KVA1 271158Z 25005KT 12/10 A3014 RMK A01 T01240104  RH  088%=      5-min Rain = 0
KVA1 271159Z 26005KT 12/11 A3014 RMK A01 T01240105  RH  088%=      5-min Rain = 0
KVA1 271200Z 26005KT 12/10 A3014 RMK A01 T01240104  RH  088%=      5-min Rain = 0
KVA1 271201Z 26004KT 12/11 A3014 RMK A01 T01240105  RH  088%=      5-min Rain = 0
KVA1 271202Z 26005KT 12/11 A3014 RMK A01 T01240105  RH  088%=      5-min Rain = 0
KVA1 271203Z 25005KT 12/11 A3014 RMK A01 T01240105  RH  088%=      5-min Rain = 0
KVA1 271204Z 26004KT 12/11 A3014 RMK A01 T01240105  RH  088%=      5-min Rain = 0
KVA1 271205Z 25005KT 12/11 A3014 RMK A01 T01240105  RH  088%=      5-min Rain = 0
KVA1 271206Z 25005KT 12/11 A3014 RMK A01 T01240105  RH  088%=      5-min Rain = 0
KVA1 271207Z 25004KT 12/11 A3014 RMK A01 T01240105  RH  088%=      5-min Rain = 0
KVA1 271208Z 25005KT 12/11 A3014 RMK A01 T01240105  RH  088%=      5-min Rain = 0
KVA1 271209Z 25005KT 12/11 A3014 RMK A01 T01240105  RH  088%=      5-min Rain = 0
KVA1 271210Z 25005KT 13/11 A3014 RMK A01 T01250105  RH  088%=      5-min Rain = 0
KVA1 271211Z 24005KT 13/11 A3014 RMK A01 T01250105  RH  088%=      5-min Rain = 0
KVA1 271212Z 24004KT 13/11 A3014 RMK A01 T01250105  RH  087%=      5-min Rain = 0
KVA1 271213Z 24004KT 13/11 A3014 RMK A01 T01250105  RH  087%=      5-min Rain = 0
KVA1 271214Z 23004KT 13/11 A3014 RMK A01 T01250105  RH  087%=      5-min Rain = 0
KVA1 271215Z 23003KT 13/11 A3014 RMK A01 T01250105  RH  087%=      5-min Rain = 0
KVA1 271216Z 24003KT 13/11 A3014 RMK A01 T01250105  RH  087%=      5-min Rain = 0
KVA1 271217Z 23004KT 13/11 A3014 RMK A01 T01250105  RH  088%=      5-min Rain = 0
KVA1 271218Z 23004KT 13/11 A3014 RMK A01 T01250105  RH  088%=      5-min Rain = 0
KVA1 271219Z 23003KT 13/11 A3014 RMK A01 T01250105  RH  088%=      5-min Rain = 0
KVA1 271220Z 24003KT 13/11 A3014 RMK A01 T01250105  RH  088%=      5-min Rain = 0
KVA1 271221Z 24003KT 13/11 A3014 RMK A01 T01250105  RH  088%=      5-min Rain = 0
KVA1 271222Z 24003KT 13/11 A3014 RMK A01 T01250105  RH  088%=      5-min Rain = 0
KVA1 271223Z 24003KT 13/11 A3014 RMK A01 T01250105  RH  088%=      5-min Rain = 0
KVA1 271224Z 25004KT 13/11 A3014 RMK A01 T01250105  RH  088%=      5-min Rain = 0
KVA1 271225Z 25004KT 12/11 A3014 RMK A01 T01240105  RH  088%=      5-min Rain = 0
KVA1 271226Z 25004KT 12/11 A3014 RMK A01 T01240105  RH  088%=      5-min Rain = 0
KVA1 271227Z 26004KT 12/11 A3014 RMK A01 T01240105  RH  088%=      5-min Rain = 0
KVA1 271228Z 26004KT 12/11 A3014 RMK A01 T01240105  RH  088%=      5-min Rain = 0
KVA1 271229Z 26005KT 12/11 A3015 RMK A01 T01240105  RH  088%=      5-min Rain = 0
KVA1 271230Z 26005KT 12/11 A3015 RMK A01 T01240105  RH  088%=      5-min Rain = 0
KVA1 271231Z 25005KT 12/11 A3015 RMK A01 T01230105  RH  089%=      5-min Rain = 0
KVA1 271232Z 25005KT 12/11 A3015 RMK A01 T01240105  RH  089%=      5-min Rain = 0
KVA1 271233Z 25005KT 12/11 A3015 RMK A01 T01230105  RH  089%=      5-min Rain = 0
KVA1 271234Z 25005KT 12/11 A3015 RMK A01 T01230105  RH  088%=      5-min Rain = 0
KVA1 271235Z 24005KT 12/11 A3015 RMK A01 T01240105  RH  088%=      5-min Rain = 0
KVA1 271236Z 24004KT 12/11 A3015 RMK A01 T01240105  RH  088%=      5-min Rain = 0
KVA1 271237Z 24005KT 12/11 A3015 RMK A01 T01230105  RH  089%=      5-min Rain = 0
KVA1 271238Z 24005KT 12/11 A3015 RMK A01 T01230105  RH  089%=      5-min Rain = 0
KVA1 271239Z 24005KT 12/11 A3015 RMK A01 T01230105  RH  089%=      5-min Rain = 0
KVA1 271240Z 24005KT 12/11 A3015 RMK A01 T01240105  RH  089%=      5-min Rain = 0
KVA1 271241Z 24005KT 12/11 A3015 RMK A01 T01240105  RH  088%=      5-min Rain = 0
KVA1 271242Z 23006KT 12/11 A3015 RMK A01 T01240105  RH  088%=      5-min Rain = 0
KVA1 271243Z 23005KT 12/11 A3015 RMK A01 T01240105  RH  088%=      5-min Rain = 0
KVA1 271244Z 23005KT 12/11 A3015 RMK A01 T01240106  RH  088%=      5-min Rain = 0
KVA1 271245Z 23006KT 13/11 A3015 RMK A01 T01250106  RH  088%=      5-min Rain = 0
KVA1 271246Z 24005KT 13/11 A3016 RMK A01 T01250106  RH  088%=      5-min Rain = 0
KVA1 271247Z 23005KT 13/11 A3016 RMK A01 T01260106  RH  088%=      5-min Rain = 0
KVA1 271248Z 23005KT 13/11 A3016 RMK A01 T01260106  RH  088%=      5-min Rain = 0
KVA1 271249Z 24005KT 13/11 A3016 RMK A01 T01260105  RH  087%=      5-min Rain = 0
KVA1 271250Z 24005KT 13/11 A3016 RMK A01 T01260106  RH  087%=      5-min Rain = 0
KVA1 271251Z 24005KT 13/11 A3016 RMK A01 T01260105  RH  087%=      5-min Rain = 0
KVA1 271252Z 24006KT 13/11 A3016 RMK A01 T01260105  RH  087%=      5-min Rain = 0
KVA1 271253Z 24005KT 13/11 A3016 RMK A01 T01260106  RH  087%=      5-min Rain = 0
KVA1 271254Z 24005KT 13/11 A3016 RMK A01 T01260105  RH  087%=      5-min Rain = 0
KVA1 271255Z 24005KT 13/11 A3016 RMK A01 T01260105  RH  087%=      5-min Rain = 0
KVA1 271256Z 24005KT 13/11 A3016 RMK A01 T01260106  RH  087%=      5-min Rain = 0
KVA1 271257Z 24005KT 13/11 A3016 RMK A01 T01260106  RH  088%=      5-min Rain = 0
KVA1 271258Z 24005KT 13/11 A3016 RMK A01 T01260106  RH  088%=      5-min Rain = 0
KVA1 271259Z 24006KT 13/11 A3016 RMK A01 T01260106  RH  088%=      5-min Rain = 0
KVA1 271300Z 24006KT 13/11 A3016 RMK A01 T01260106  RH  088%=      5-min Rain = 0
KVA1 271301Z 24005KT 13/11 A3016 RMK A01 T01260106  RH  088%=      5-min Rain = 0
KVA1 271302Z 24006KT 13/11 A3016 RMK A01 T01260106  RH  088%=      5-min Rain = 0
KVA1 271303Z 23006KT 13/11 A3016 RMK A01 T01250106  RH  088%=      5-min Rain = 0
KVA1 271304Z 24005KT 13/11 A3016 RMK A01 T01250105  RH  088%=      5-min Rain = 0
KVA1 271305Z 24006KT 13/11 A3016 RMK A01 T01250105  RH  088%=      5-min Rain = 0
KVA1 271306Z 24005KT 13/11 A3016 RMK A01 T01250106  RH  088%=      5-min Rain = 0
KVA1 271307Z 24006KT 13/11 A3016 RMK A01 T01250106  RH  088%=      5-min Rain = 0
KVA1 271308Z 24005KT 13/11 A3016 RMK A01 T01250106  RH  088%=      5-min Rain = 0
KVA1 271309Z 24006KT 13/11 A3016 RMK A01 T01250106  RH  088%=      5-min Rain = 0
KVA1 271310Z 24005KT 13/11 A3016 RMK A01 T01260106  RH  088%=      5-min Rain = 0
KVA1 271311Z 23005KT 13/11 A3016 RMK A01 T01250106  RH  088%=      5-min Rain = 0
KVA1 271312Z 24006KT 13/11 A3016 RMK A01 T01260106  RH  088%=      5-min Rain = 0
KVA1 271313Z 24006KT 13/11 A3016 RMK A01 T01260106  RH  088%=      5-min Rain = 0
KVA1 271314Z 24006KT 13/11 A3016 RMK A01 T01250106  RH  088%=      5-min Rain = 0
KVA1 271315Z 23005KT 13/11 A3016 RMK A01 T01250106  RH  088%=      5-min Rain = 0
KVA1 271316Z 23006KT 13/11 A3016 RMK A01 T01250106  RH  088%=      5-min Rain = 0
KVA1 271317Z 23006KT 13/11 A3016 RMK A01 T01260106  RH  088%=      5-min Rain = 0
KVA1 271318Z 23005KT 13/11 A3016 RMK A01 T01260106  RH  088%=      5-min Rain = 0
KVA1 271319Z 23006KT 13/11 A3016 RMK A01 T01260106  RH  088%=      5-min Rain = 0
KVA1 271320Z 23006KT 13/11 A3016 RMK A01 T01260106  RH  088%=      5-min Rain = 0
KVA1 271321Z 23005KT 13/11 A3016 RMK A01 T01260106  RH  088%=      5-min Rain = 0
KVA1 271322Z 23006KT 13/11 A3016 RMK A01 T01260106  RH  087%=      5-min Rain = 0
KVA1 271323Z 23006KT 13/11 A3016 RMK A01 T01270106  RH  087%=      5-min Rain = 0
KVA1 271324Z 23006KT 13/11 A3016 RMK A01 T01270106  RH  087%=      5-min Rain = 0
KVA1 271325Z 23006KT 13/11 A3016 RMK A01 T01270106  RH  087%=      5-min Rain = 0
KVA1 271326Z 23006KT 13/11 A3016 RMK A01 T01280106  RH  087%=      5-min Rain = 0
KVA1 271327Z 23006KT 13/11 A3016 RMK A01 T01280106  RH  086%=      5-min Rain = 0
KVA1 271328Z 23005KT 13/11 A3016 RMK A01 T01280106  RH  086%=      5-min Rain = 0
KVA1 271329Z 24005KT 13/11 A3016 RMK A01 T01290107  RH  087%=      5-min Rain = 0
KVA1 271330Z 24005KT 13/11 A3016 RMK A01 T01290107  RH  087%=      5-min Rain = 0
KVA1 271331Z 23005KT 13/11 A3016 RMK A01 T01290107  RH  087%=      5-min Rain = 0
KVA1 271332Z 24005KT 13/11 A3016 RMK A01 T01290107  RH  087%=      5-min Rain = 0
KVA1 271333Z 24005KT 13/11 A3016 RMK A01 T01290107  RH  087%=      5-min Rain = 0
KVA1 271334Z 24005KT 13/11 A3016 RMK A01 T01290107  RH  087%=      5-min Rain = 0
KVA1 271335Z 25005KT 13/11 A3016 RMK A01 T01290107  RH  087%=      5-min Rain = 0
KVA1 271336Z 24005KT 13/11 A3016 RMK A01 T01290107  RH  087%=      5-min Rain = 0
KVA1 271337Z 25005KT 13/11 A3016 RMK A01 T01290107  RH  086%=      5-min Rain = 0
KVA1 271338Z 25005KT 13/11 A3016 RMK A01 T01300108  RH  086%=      5-min Rain = 0
KVA1 271339Z 25005KT 13/11 A3016 RMK A01 T01300108  RH  086%=      5-min Rain = 0
KVA1 271340Z 26006KT 13/11 A3015 RMK A01 T01310108  RH  086%=      5-min Rain = 0
KVA1 271341Z 26005KT 13/11 A3015 RMK A01 T01310108  RH  086%=      5-min Rain = 0
KVA1 271342Z 26005KT 13/11 A3016 RMK A01 T01310108  RH  086%=      5-min Rain = 0
KVA1 271343Z 26006KT 13/11 A3016 RMK A01 T01320108  RH  086%=      5-min Rain = 0
KVA1 271344Z 26006KT 13/11 A3016 RMK A01 T01320109  RH  085%=      5-min Rain = 0
KVA1 271345Z 25005KT 13/11 A3016 RMK A01 T01330109  RH  085%=      5-min Rain = 0
KVA1 271346Z 25005KT 13/11 A3016 RMK A01 T01340109  RH  085%=      5-min Rain = 0
KVA1 271347Z 26006KT 13/11 A3016 RMK A01 T01340109  RH  085%=      5-min Rain = 0
KVA1 271348Z 26005KT 13/11 A3016 RMK A01 T01340109  RH  085%=      5-min Rain = 0
KVA1 271349Z 26005KT 14/11 A3016 RMK A01 T01350110  RH  085%=      5-min Rain = 0
KVA1 271350Z 25005KT 14/11 A3016 RMK A01 T01350110  RH  085%=      5-min Rain = 0
KVA1 271351Z 25005KT 14/11 A3015 RMK A01 T01350110  RH  084%=      5-min Rain = 0
KVA1 271352Z 25005KT 14/11 A3015 RMK A01 T01350109  RH  084%=      5-min Rain = 0
KVA1 271353Z 26005KT 14/11 A3015 RMK A01 T01360110  RH  084%=      5-min Rain = 0
KVA1 271354Z 26004KT 14/11 A3015 RMK A01 T01360110  RH  084%=      5-min Rain = 0
KVA1 271355Z 26006KT 14/11 A3015 RMK A01 T01370111  RH  084%=      5-min Rain = 0
KVA1 271356Z 26006KT 14/11 A3015 RMK A01 T01370110  RH  084%=      5-min Rain = 0
KVA1 271357Z 26007KT 14/11 A3016 RMK A01 T01370110  RH  083%=      5-min Rain = 0
KVA1 271358Z 26006KT 14/11 A3016 RMK A01 T01380110  RH  084%=      5-min Rain = 0
KVA1 271359Z 26006KT 14/11 A3016 RMK A01 T01380110  RH  084%=      5-min Rain = 0
KVA1 271400Z 26006KT 14/11 A3016 RMK A01 T01380111  RH  083%=      5-min Rain = 0
KVA1 271401Z 26006KT 14/11 A3016 RMK A01 T01390111  RH  083%=      5-min Rain = 0
KVA1 271402Z 26006KT 14/11 A3016 RMK A01 T01390111  RH  083%=      5-min Rain = 0
KVA1 271403Z 26005KT 14/11 A3016 RMK A01 T01390111  RH  083%=      5-min Rain = 0
KVA1 271404Z 26004KT 14/11 A3016 RMK A01 T01400111  RH  083%=      5-min Rain = 0
KVA1 271405Z 25005KT 14/11 A3016 RMK A01 T01400111  RH  083%=      5-min Rain = 0
KVA1 271406Z 26005KT 14/11 A3016 RMK A01 T01400111  RH  082%=      5-min Rain = 0
KVA1 271407Z 26005KT 14/11 A3017 RMK A01 T01410111  RH  082%=      5-min Rain = 0
KVA1 271408Z 26005KT 14/11 A3017 RMK A01 T01420111  RH  082%=      5-min Rain = 0
KVA1 271409Z 25005KT 14/11 A3017 RMK A01 T01420111  RH  082%=      5-min Rain = 0
KVA1 271410Z 25004KT 14/11 A3017 RMK A01 T01420112  RH  082%=      5-min Rain = 0
KVA1 271411Z 24004KT 14/11 A3017 RMK A01 T01430113  RH  082%=      5-min Rain = 0
KVA1 271412Z 24003KT 14/11 A3017 RMK A01 T01430113  RH  082%=      5-min Rain = 0
KVA1 271413Z 25003KT 14/11 A3017 RMK A01 T01440114  RH  082%=      5-min Rain = 0
KVA1 271414Z 25004KT 14/11 A3017 RMK A01 T01440113  RH  082%=      5-min Rain = 0
KVA1 271415Z 25005KT 14/11 A3017 RMK A01 T01440112  RH  081%=      5-min Rain = 0
KVA1 271416Z 26004KT 15/11 A3017 RMK A01 T01450113  RH  081%=      5-min Rain = 0
KVA1 271417Z 25005KT 15/11 A3017 RMK A01 T01450113  RH  081%=      5-min Rain = 0
KVA1 271418Z 25005KT 15/11 A3017 RMK A01 T01450114  RH  081%=      5-min Rain = 0
KVA1 271419Z 24004KT 15/12 A3017 RMK A01 T01460115  RH  081%=      5-min Rain = 0
KVA1 271420Z 25004KT 15/12 A3017 RMK A01 T01470115  RH  081%=      5-min Rain = 0
KVA1 271421Z 25005KT 15/12 A3017 RMK A01 T01470115  RH  081%=      5-min Rain = 0
KVA1 271422Z 24004KT 15/12 A3017 RMK A01 T01470115  RH  081%=      5-min Rain = 0
KVA1 271423Z 24004KT 15/12 A3017 RMK A01 T01480115  RH  081%=      5-min Rain = 0
KVA1 271424Z 23004KT 15/12 A3017 RMK A01 T01480116  RH  081%=      5-min Rain = 0
KVA1 271425Z 22004KT 15/12 A3017 RMK A01 T01490115  RH  080%=      5-min Rain = 0
KVA1 271426Z 22004KT 15/12 A3017 RMK A01 T01490115  RH  080%=      5-min Rain = 0
KVA1 271427Z 21005KT 15/12 A3017 RMK A01 T01500116  RH  080%=      5-min Rain = 0
KVA1 271428Z 21006KT 15/12 A3017 RMK A01 T01520116  RH  079%=      5-min Rain = 0
KVA1 271429Z 21007KT 15/12 A3017 RMK A01 T01530116  RH  079%=      5-min Rain = 0
KVA1 271430Z 20005KT 15/12 A3017 RMK A01 T01530115  RH  078%=      5-min Rain = 0
KVA1 271431Z 20003KT 15/12 A3017 RMK A01 T01530117  RH  079%=      5-min Rain = 0
KVA1 271432Z 22004KT 15/12 A3017 RMK A01 T01540118  RH  079%=      5-min Rain = 0
KVA1 271433Z 22004KT 16/12 A3017 RMK A01 T01550118  RH  079%=      5-min Rain = 0
KVA1 271434Z 22004KT 16/12 A3017 RMK A01 T01550116  RH  078%=      5-min Rain = 0
KVA1 271435Z 22004KT 16/12 A3017 RMK A01 T01560117  RH  078%=      5-min Rain = 0
KVA1 271436Z 21004KT 16/12 A3017 RMK A01 T01570119  RH  078%=      5-min Rain = 0
KVA1 271437Z 22004KT 16/12 A3017 RMK A01 T01570118  RH  078%=      5-min Rain = 0
KVA1 271438Z 20004KT 16/12 A3017 RMK A01 T01570119  RH  078%=      5-min Rain = 0
KVA1 271439Z 19005KT 16/12 A3017 RMK A01 T01580120  RH  078%=      5-min Rain = 0
KVA1 271440Z 19004KT 16/12 A3017 RMK A01 T01600120  RH  077%=      5-min Rain = 0
KVA1 271441Z 19005KT 16/12 A3017 RMK A01 T01610121  RH  077%=      5-min Rain = 0
KVA1 271442Z 19005KT 16/12 A3017 RMK A01 T01630122  RH  076%=      5-min Rain = 0
KVA1 271443Z 19007KT 16/12 A3017 RMK A01 T01640121  RH  075%=      5-min Rain = 0
KVA1 271444Z 19005KT 17/12 A3017 RMK A01 T01650119  RH  074%=      5-min Rain = 0
KVA1 271445Z 18008KT 17/12 A3017 RMK A01 T01650120  RH  075%=      5-min Rain = 0
KVA1 271446Z 19007KT 17/12 A3017 RMK A01 T01650119  RH  074%=      5-min Rain = 0
KVA1 271447Z 19007KT 17/12 A3017 RMK A01 T01650120  RH  075%=      5-min Rain = 0
KVA1 271448Z 20006KT 17/12 A3018 RMK A01 T01650121  RH  075%=      5-min Rain = 0
KVA1 271449Z 20007KT 17/12 A3018 RMK A01 T01650118  RH  074%=      5-min Rain = 0
KVA1 271450Z 20007KT 17/12 A3018 RMK A01 T01650120  RH  075%=      5-min Rain = 0
KVA1 271451Z 18009KT 17/12 A3018 RMK A01 T01650118  RH  074%=      5-min Rain = 0
KVA1 271452Z 19008KT 16/12 A3018 RMK A01 T01640118  RH  074%=      5-min Rain = 0
KVA1 271453Z 18008KT 16/12 A3018 RMK A01 T01630119  RH  075%=      5-min Rain = 0
KVA1 271454Z 20007KT 16/12 A3018 RMK A01 T01640118  RH  074%=      5-min Rain = 0
KVA1 271455Z 20008KT 16/12 A3018 RMK A01 T01630117  RH  074%=      5-min Rain = 0
KVA1 271456Z 20007KT 16/12 A3018 RMK A01 T01630117  RH  074%=      5-min Rain = 0
KVA1 271457Z 19006KT 16/12 A3018 RMK A01 T01630118  RH  075%=      5-min Rain = 0
KVA1 271458Z 19007KT 16/12 A3018 RMK A01 T01630119  RH  075%=      5-min Rain = 0
KVA1 271459Z 18006KT 16/12 A3018 RMK A01 T01630119  RH  075%=      5-min Rain = 0
KVA1 271500Z 19007KT 16/12 A3018 RMK A01 T01630119  RH  075%=      5-min Rain = 0
KVA1 271501Z 19008KT 16/12 A3018 RMK A01 T01630118  RH  075%=      5-min Rain = 0
KVA1 271502Z 19007KT 16/12 A3018 RMK A01 T01630119  RH  075%=      5-min Rain = 0
KVA1 271503Z 19006KT 16/12 A3018 RMK A01 T01640119  RH  075%=      5-min Rain = 0
KVA1 271504Z 20008KT 16/12 A3018 RMK A01 T01640119  RH  075%=      5-min Rain = 0
KVA1 271505Z 19008KT 16/12 A3018 RMK A01 T01640118  RH  074%=      5-min Rain = 0
KVA1 271506Z 19009KT 16/12 A3018 RMK A01 T01640117  RH  074%=      5-min Rain = 0
KVA1 271507Z 18008KT 16/12 A3018 RMK A01 T01640117  RH  074%=      5-min Rain = 0
KVA1 271508Z 19006KT 16/12 A3018 RMK A01 T01640118  RH  074%=      5-min Rain = 0
KVA1 271509Z 20007KT 16/12 A3018 RMK A01 T01640120  RH  075%=      5-min Rain = 0
KVA1 271510Z 19006KT 17/12 A3018 RMK A01 T01650119  RH  074%=      5-min Rain = 0
KVA1 271511Z 19008KT 17/12 A3018 RMK A01 T01650121  RH  075%=      5-min Rain = 0
KVA1 271512Z 18008KT 17/12 A3018 RMK A01 T01660119  RH  074%=      5-min Rain = 0
KVA1 271513Z 19008KT 17/12 A3018 RMK A01 T01660119  RH  074%=      5-min Rain = 0
KVA1 271514Z 18008KT 17/12 A3018 RMK A01 T01660119  RH  074%=      5-min Rain = 0
KVA1 271515Z 18008KT 17/12 A3018 RMK A01 T01670121  RH  074%=      5-min Rain = 0
KVA1 271516Z 19005KT 17/12 A3018 RMK A01 T01670121  RH  074%=      5-min Rain = 0
KVA1 271517Z 18008KT 17/12 A3018 RMK A01 T01680120  RH  073%=      5-min Rain = 0
KVA1 271518Z 19008KT 17/12 A3018 RMK A01 T01680120  RH  073%=      5-min Rain = 0
KVA1 271519Z 19008KT 17/12 A3018 RMK A01 T01680120  RH  073%=      5-min Rain = 0
KVA1 271520Z 18006KT 17/12 A3018 RMK A01 T01680121  RH  074%=      5-min Rain = 0
KVA1 271521Z 19005KT 17/12 A3018 RMK A01 T01690122  RH  074%=      5-min Rain = 0
KVA1 271522Z 18006KT 17/12 A3018 RMK A01 T01700123  RH  074%=      5-min Rain = 0
KVA1 271523Z 18006KT 17/12 A3018 RMK A01 T01710123  RH  074%=      5-min Rain = 0
KVA1 271524Z 18006KT 17/12 A3018 RMK A01 T01710121  RH  072%=      5-min Rain = 0
KVA1 271525Z 18006KT 17/12 A3019 RMK A01 T01720124  RH  074%=      5-min Rain = 0
KVA1 271526Z 18007KT 17/12 A3019 RMK A01 T01720123  RH  073%=      5-min Rain = 0
KVA1 271527Z 18007KT 17/12 A3019 RMK A01 T01730122  RH  072%=      5-min Rain = 0
KVA1 271528Z 17006KT 17/12 A3019 RMK A01 T01730123  RH  073%=      5-min Rain = 0
KVA1 271529Z 18006KT 17/12 A3019 RMK A01 T01740124  RH  073%=      5-min Rain = 0
KVA1 271530Z 17005KT 18/13 A3019 RMK A01 T01750125  RH  072%=      5-min Rain = 0
KVA1 271531Z 19005KT 18/12 A3019 RMK A01 T01760124  RH  072%=      5-min Rain = 0
KVA1 271532Z 16007KT 18/13 A3019 RMK A01 T01770125  RH  072%=      5-min Rain = 0
KVA1 271533Z 16007KT 18/12 A3019 RMK A01 T01770123  RH  070%=      5-min Rain = 0
KVA1 271534Z 16007KT 18/12 A3019 RMK A01 T01770122  RH  070%=      5-min Rain = 0
KVA1 271535Z 17008KT 18/12 A3019 RMK A01 T01780123  RH  070%=      5-min Rain = 0
KVA1 271536Z 18007KT 18/12 A3019 RMK A01 T01780124  RH  071%=      5-min Rain = 0
KVA1 271537Z 17007KT 18/13 A3019 RMK A01 T01790125  RH  071%=      5-min Rain = 0
KVA1 271538Z 18007KT 18/12 A3019 RMK A01 T01800124  RH  070%=      5-min Rain = 0
KVA1 271539Z 18009KT 18/12 A3019 RMK A01 T01790123  RH  070%=      5-min Rain = 0
KVA1 271540Z 17008KT 18/13 A3019 RMK A01 T01800125  RH  070%=      5-min Rain = 0
KVA1 271541Z 17007KT 18/12 A3019 RMK A01 T01800122  RH  069%=      5-min Rain = 0
KVA1 271542Z 17007KT 18/12 A3019 RMK A01 T01800122  RH  069%=      5-min Rain = 0
KVA1 271543Z 17009KT 18/12 A3018 RMK A01 T01810123  RH  069%=      5-min Rain = 0
KVA1 271544Z 17008KT 18/12 A3018 RMK A01 T01810122  RH  068%=      5-min Rain = 0
KVA1 271545Z 18009KT 18/12 A3018 RMK A01 T01820122  RH  068%=      5-min Rain = 0
KVA1 271546Z 18008KT 18/12 A3018 RMK A01 T01820124  RH  069%=      5-min Rain = 0
KVA1 271547Z 18010KT 18/12 A3018 RMK A01 T01820123  RH  068%=      5-min Rain = 0
KVA1 271548Z 18009KT 18/12 A3018 RMK A01 T01820123  RH  068%=      5-min Rain = 0
KVA1 271549Z 18008KT 18/12 A3018 RMK A01 T01820123  RH  069%=      5-min Rain = 0
KVA1 271550Z 17008KT 18/12 A3018 RMK A01 T01830124  RH  069%=      5-min Rain = 0
KVA1 271551Z 16008KT 18/12 A3018 RMK A01 T01840124  RH  068%=      5-min Rain = 0
KVA1 271552Z 17009KT 19/12 A3019 RMK A01 T01850123  RH  067%=      5-min Rain = 0
KVA1 271553Z 17009KT 19/12 A3019 RMK A01 T01850122  RH  067%=      5-min Rain = 0
KVA1 271554Z 16009KT 18/12 A3019 RMK A01 T01840121  RH  067%=      5-min Rain = 0
KVA1 271555Z 15008KT 18/12 A3019 RMK A01 T01840122  RH  067%=      5-min Rain = 0
KVA1 271556Z 16008KT 19/12 A3019 RMK A01 T01850122  RH  067%=      5-min Rain = 0
KVA1 271557Z 17008KT 19/12 A3019 RMK A01 T01850123  RH  067%=      5-min Rain = 0
KVA1 271558Z 16008KT 19/12 A3018 RMK A01 T01860123  RH  067%=      5-min Rain = 0
KVA1 271559Z 17009KT 19/12 A3018 RMK A01 T01870124  RH  066%=      5-min Rain = 0
KVA1 271600Z 17009KT 19/12 A3018 RMK A01 T01880122  RH  065%=      5-min Rain = 0
KVA1 271601Z 16008KT 19/12 A3018 RMK A01 T01890124  RH  066%=      5-min Rain = 0
KVA1 271602Z 17012KT 19/12 A3018 RMK A01 T01900124  RH  065%=      5-min Rain = 0
KVA1 271603Z 18010KT 19/12 A3018 RMK A01 T01900123  RH  065%=      5-min Rain = 0
KVA1 271604Z 19009KT 19/12 A3018 RMK A01 T01900124  RH  065%=      5-min Rain = 0
KVA1 271605Z 18008KT 19/13 A3018 RMK A01 T01900125  RH  066%=      5-min Rain = 0
KVA1 271606Z 18009KT 19/13 A3018 RMK A01 T01910126  RH  066%=      5-min Rain = 0
KVA1 271607Z 19009KT 19/12 A3018 RMK A01 T01910124  RH  065%=      5-min Rain = 0
KVA1 271608Z 19009KT 19/12 A3018 RMK A01 T01910124  RH  065%=      5-min Rain = 0
KVA1 271609Z 19008KT 19/12 A3018 RMK A01 T01910124  RH  065%=      5-min Rain = 0
KVA1 271610Z 17009KT 19/13 A3018 RMK A01 T01920126  RH  066%=      5-min Rain = 0
KVA1 271611Z 18008KT 19/12 A3018 RMK A01 T01930124  RH  064%=      5-min Rain = 0
KVA1 271612Z 17009KT 19/13 A3018 RMK A01 T01940126  RH  065%=      5-min Rain = 0
KVA1 271613Z 17007KT 20/13 A3018 RMK A01 T01950125  RH  064%=      5-min Rain = 0
KVA1 271614Z 17009KT 20/13 A3018 RMK A01 T01960125  RH  064%=      5-min Rain = 0
KVA1 271615Z 18011KT 20/12 A3019 RMK A01 T01960124  RH  063%=      5-min Rain = 0
KVA1 271616Z 18008KT 20/13 A3019 RMK A01 T01950125  RH  064%=      5-min Rain = 0
KVA1 271617Z 18008KT 20/13 A3019 RMK A01 T01950126  RH  064%=      5-min Rain = 0
KVA1 271618Z 17007KT 20/13 A3019 RMK A01 T01970126  RH  064%=      5-min Rain = 0
KVA1 271619Z 19008KT 20/13 A3019 RMK A01 T01980127  RH  063%=      5-min Rain = 0
KVA1 271620Z 18008KT 20/13 A3019 RMK A01 T01990126  RH  063%=      5-min Rain = 0
KVA1 271621Z 18009KT 20/13 A3019 RMK A01 T01990126  RH  063%=      5-min Rain = 0
KVA1 271622Z 19009KT 20/13 A3019 RMK A01 T01990126  RH  063%=      5-min Rain = 0
KVA1 271623Z 17008KT 20/13 A3019 RMK A01 T01990126  RH  063%=      5-min Rain = 0
KVA1 271624Z 18009KT 20/13 A3018 RMK A01 T01990127  RH  063%=      5-min Rain = 0
KVA1 271625Z 18011KT 20/13 A3018 RMK A01 T02010127  RH  062%=      5-min Rain = 0
KVA1 271626Z 19010KT 20/13 A3018 RMK A01 T02020126  RH  062%=      5-min Rain = 0
KVA1 271627Z 17010KT 20/13 A3018 RMK A01 T02020126  RH  062%=      5-min Rain = 0
KVA1 271628Z 18010KT 20/13 A3018 RMK A01 T02010127  RH  062%=      5-min Rain = 0
KVA1 271629Z 19007KT 20/13 A3018 RMK A01 T02010126  RH  062%=      5-min Rain = 0
KVA1 271630Z 18010KT 20/13 A3018 RMK A01 T02010126  RH  062%=      5-min Rain = 0
KVA1 271631Z 19009KT 20/13 A3018 RMK A01 T02010127  RH  062%=      5-min Rain = 0
KVA1 271632Z 17011KT 20/13 A3018 RMK A01 T02020126  RH  062%=      5-min Rain = 0
KVA1 271633Z 18010KT 20/13 A3018 RMK A01 T02020126  RH  062%=      5-min Rain = 0
KVA1 271634Z 19008KT 20/13 A3018 RMK A01 T02020127  RH  062%=      5-min Rain = 0
KVA1 271635Z 19012KT 20/13 A3018 RMK A01 T02030129  RH  062%=      5-min Rain = 0
KVA1 271636Z 20008KT 20/13 A3018 RMK A01 T02040126  RH  061%=      5-min Rain = 0
KVA1 271637Z 18007KT 20/13 A3018 RMK A01 T02030127  RH  062%=      5-min Rain = 0
KVA1 271638Z 20010KT 21/13 A3018 RMK A01 T02050128  RH  062%=      5-min Rain = 0
KVA1 271639Z 21007KT 21/13 A3018 RMK A01 T02050126  RH  061%=      5-min Rain = 0
KVA1 271640Z 21007KT 21/13 A3018 RMK A01 T02050128  RH  061%=      5-min Rain = 0
KVA1 271641Z 18009KT 21/13 A3018 RMK A01 T02050127  RH  061%=      5-min Rain = 0
KVA1 271642Z 17009KT 21/13 A3018 RMK A01 T02070130  RH  061%=      5-min Rain = 0
KVA1 271643Z 17009KT 21/13 A3018 RMK A01 T02090127  RH  059%=      5-min Rain = 0
KVA1 271644Z 18010KT 21/13 A3018 RMK A01 T02110129  RH  059%=      5-min Rain = 0
KVA1 271645Z 20011KT 21/13 A3018 RMK A01 T02120126  RH  058%=      5-min Rain = 0
KVA1 271646Z 20009KT 21/13 A3018 RMK A01 T02100126  RH  058%=      5-min Rain = 0
KVA1 271647Z 19008KT 21/13 A3018 RMK A01 T02100127  RH  059%=      5-min Rain = 0
KVA1 271648Z 19006KT 21/13 A3018 RMK A01 T02100127  RH  059%=      5-min Rain = 0
KVA1 271649Z 19007KT 21/13 A3018 RMK A01 T02100128  RH  060%=      5-min Rain = 0
KVA1 271650Z 19009KT 21/13 A3018 RMK A01 T02110129  RH  059%=      5-min Rain = 0
KVA1 271651Z 19009KT 21/13 A3018 RMK A01 T02120128  RH  059%=      5-min Rain = 0
KVA1 271652Z 19010KT 21/13 A3018 RMK A01 T02120128  RH  059%=      5-min Rain = 0
KVA1 271653Z 19009KT 21/13 A3018 RMK A01 T02120128  RH  058%=      5-min Rain = 0
KVA1 271654Z 21008KT 21/13 A3018 RMK A01 T02130129  RH  059%=      5-min Rain = 0
KVA1 271655Z 21007KT 21/13 A3018 RMK A01 T02130127  RH  058%=      5-min Rain = 0
KVA1 271656Z 21006KT 21/13 A3018 RMK A01 T02120128  RH  059%=      5-min Rain = 0
KVA1 271657Z 20007KT 21/13 A3018 RMK A01 T02120129  RH  059%=      5-min Rain = 0
KVA1 271658Z 21010KT 21/13 A3018 RMK A01 T02140130  RH  059%=      5-min Rain = 0
KVA1 271659Z 22008KT 21/13 A3018 RMK A01 T02140127  RH  058%=      5-min Rain = 0
KVA1 271700Z 22008KT 22/13 A3018 RMK A01 T02150129  RH  058%=      5-min Rain = 0
KVA1 271701Z 21008KT 22/13 A3018 RMK A01 T02150128  RH  058%=      5-min Rain = 0
KVA1 271702Z 21009KT 22/13 A3018 RMK A01 T02160130  RH  058%=      5-min Rain = 0
KVA1 271703Z 21007KT 22/13 A3018 RMK A01 T02170127  RH  057%=      5-min Rain = 0
KVA1 271704Z 20006KT 22/13 A3018 RMK A01 T02160128  RH  057%=      5-min Rain = 0
KVA1 271705Z 18008KT 22/13 A3018 RMK A01 T02160128  RH  057%=      5-min Rain = 0
KVA1 271706Z 19006KT 22/13 A3018 RMK A01 T02150129  RH  058%=      5-min Rain = 0
KVA1 271707Z 21005KT 21/13 A3018 RMK A01 T02140128  RH  058%=      5-min Rain = 0
KVA1 271708Z 21007KT 21/13 A3017 RMK A01 T02140129  RH  058%=      5-min Rain = 0
KVA1 271709Z 22007KT 22/13 A3017 RMK A01 T02150127  RH  057%=      5-min Rain = 0
KVA1 271710Z 23006KT 22/13 A3017 RMK A01 T02150128  RH  057%=      5-min Rain = 0
KVA1 271711Z 21007KT 22/13 A3017 RMK A01 T02150129  RH  058%=      5-min Rain = 0
KVA1 271712Z 19009KT 22/13 A3017 RMK A01 T02150128  RH  058%=      5-min Rain = 0
KVA1 271713Z 20009KT 22/13 A3017 RMK A01 T02160128  RH  057%=      5-min Rain = 0
KVA1 271714Z 19009KT 22/13 A3017 RMK A01 T02170127  RH  057%=      5-min Rain = 0
KVA1 271715Z 22010KT 22/13 A3017 RMK A01 T02170127  RH  057%=      5-min Rain = 0
KVA1 271716Z 21009KT 22/13 A3017 RMK A01 T02170128  RH  057%=      5-min Rain = 0
KVA1 271717Z 21008KT 22/13 A3017 RMK A01 T02180127  RH  056%=      5-min Rain = 0
KVA1 271718Z 21007KT 22/13 A3017 RMK A01 T02180128  RH  056%=      5-min Rain = 0
KVA1 271719Z 21005KT 22/13 A3017 RMK A01 T02190129  RH  057%=      5-min Rain = 0
KVA1 271720Z 21007KT 22/13 A3017 RMK A01 T02210130  RH  057%=      5-min Rain = 0
KVA1 271721Z 22008KT 22/13 A3017 RMK A01 T02230129  RH  055%=      5-min Rain = 0
KVA1 271722Z 23008KT 22/13 A3017 RMK A01 T02230129  RH  055%=      5-min Rain = 0
KVA1 271723Z 21007KT 22/13 A3017 RMK A01 T02230129  RH  055%=      5-min Rain = 0
KVA1 271724Z 21005KT 22/13 A3017 RMK A01 T02230128  RH  055%=      5-min Rain = 0
KVA1 271725Z 22006KT 22/13 A3017 RMK A01 T02220128  RH  055%=      5-min Rain = 0
KVA1 271726Z 20006KT 22/13 A3017 RMK A01 T02210127  RH  055%=      5-min Rain = 0
KVA1 271727Z 22005KT 22/13 A3017 RMK A01 T02210129  RH  056%=      5-min Rain = 0
KVA1 271728Z 21010KT 22/13 A3017 RMK A01 T02210129  RH  056%=      5-min Rain = 0
KVA1 271729Z 22008KT 22/13 A3017 RMK A01 T02230129  RH  055%=      5-min Rain = 0
KVA1 271730Z 21010KT 22/13 A3017 RMK A01 T02240129  RH  055%=      5-min Rain = 0
KVA1 271731Z 20008KT 23/13 A3017 RMK A01 T02250128  RH  054%=      5-min Rain = 0
KVA1 271732Z 19008KT 23/13 A3017 RMK A01 T02250129  RH  055%=      5-min Rain = 0
KVA1 271733Z 19006KT 23/13 A3017 RMK A01 T02260129  RH  054%=      5-min Rain = 0
KVA1 271734Z 21005KT 23/13 A3016 RMK A01 T02260131  RH  055%=      5-min Rain = 0
KVA1 271735Z 22007KT 23/13 A3016 RMK A01 T02280129  RH  054%=      5-min Rain = 0
KVA1 271736Z 20007KT 23/13 A3016 RMK A01 T02270128  RH  054%=      5-min Rain = 0
KVA1 271737Z 17009KT 23/13 A3016 RMK A01 T02270130  RH  054%=      5-min Rain = 0
KVA1 271738Z 17009KT 23/13 A3016 RMK A01 T02300130  RH  053%=      5-min Rain = 0
KVA1 271739Z 18008KT 23/13 A3016 RMK A01 T02310129  RH  053%=      5-min Rain = 0
KVA1 271740Z 20010KT 23/13 A3016 RMK A01 T02310130  RH  053%=      5-min Rain = 0
KVA1 271741Z 20010KT 23/13 A3016 RMK A01 T02320130  RH  052%=      5-min Rain = 0
KVA1 271742Z 17011KT 23/13 A3016 RMK A01 T02330129  RH  052%=      5-min Rain = 0
KVA1 271743Z 18008KT 23/13 A3016 RMK A01 T02330128  RH  052%=      5-min Rain = 0
KVA1 271744Z 18009KT 23/13 A3016 RMK A01 T02330130  RH  052%=      5-min Rain = 0
KVA1 271745Z 20009KT 24/13 A3016 RMK A01 T02350130  RH  052%=      5-min Rain = 0
KVA1 271746Z 20011KT 24/13 A3016 RMK A01 T02350128  RH  051%=      5-min Rain = 0
KVA1 271747Z 19008KT 23/13 A3016 RMK A01 T02320125  RH  051%=      5-min Rain = 0
KVA1 271748Z 17005KT 23/13 A3016 RMK A01 T02290125  RH  052%=      5-min Rain = 0
KVA1 271749Z 19008KT 23/13 A3016 RMK A01 T02280127  RH  053%=      5-min Rain = 0
KVA1 271750Z 19009KT 23/13 A3016 RMK A01 T02290126  RH  052%=      5-min Rain = 0
KVA1 271751Z 19010KT 23/13 A3016 RMK A01 T02310129  RH  053%=      5-min Rain = 0
KVA1 271752Z 19008KT 23/13 A3016 RMK A01 T02330127  RH  051%=      5-min Rain = 0
KVA1 271753Z 17011KT 23/13 A3016 RMK A01 T02330128  RH  052%=      5-min Rain = 0
KVA1 271754Z 18013KT 23/13 A3016 RMK A01 T02340127  RH  051%=      5-min Rain = 0
KVA1 271755Z 18012KT 24/13 A3016 RMK A01 T02350126  RH  050%=      5-min Rain = 0
KVA1 271756Z 18011KT 24/12 A3016 RMK A01 T02350124  RH  050%=      5-min Rain = 0
KVA1 271757Z 19011KT 23/13 A3016 RMK A01 T02330125  RH  050%=      5-min Rain = 0
KVA1 271758Z 21011G16KT 24/13 A3016 RMK A01 T02350126  RH  050%=      5-min Rain = 0
KVA1 271759Z 20009KT 24/13 A3016 RMK A01 T02380127  RH  050%=      5-min Rain = 0
KVA1 271800Z 21011KT 24/13 A3016 RMK A01 T02410127  RH  049%=      5-min Rain = 0
KVA1 271801Z 20011KT 24/13 A3016 RMK A01 T02420125  RH  048%=      5-min Rain = 0
KVA1 271802Z 21010KT 24/12 A3016 RMK A01 T02410124  RH  048%=      5-min Rain = 0
KVA1 271803Z 22011KT 24/12 A3016 RMK A01 T02390124  RH  048%=      5-min Rain = 0
KVA1 271804Z 22012KT 24/12 A3016 RMK A01 T02370123  RH  049%=      5-min Rain = 0
KVA1 271805Z 21012KT 24/13 A3016 RMK A01 T02360125  RH  049%=      5-min Rain = 0
KVA1 271806Z 21012KT 24/12 A3015 RMK A01 T02380124  RH  049%=      5-min Rain = 0
KVA1 271807Z 21011G16KT 24/12 A3015 RMK A01 T02370123  RH  049%=      5-min Rain = 0
KVA1 271808Z 21012KT 24/12 A3015 RMK A01 T02370123  RH  049%=      5-min Rain = 0
KVA1 271809Z 21012KT 24/12 A3015 RMK A01 T02360122  RH  049%=      5-min Rain = 0
KVA1 271810Z 22012G18KT 24/12 A3015 RMK A01 T02360123  RH  049%=      5-min Rain = 0
KVA1 271811Z 22014G19KT 24/12 A3015 RMK A01 T02370123  RH  049%=      5-min Rain = 0
KVA1 271812Z 22015KT 24/12 A3015 RMK A01 T02370123  RH  049%=      5-min Rain = 0
KVA1 271813Z 22012KT 24/12 A3015 RMK A01 T02360122  RH  049%=      5-min Rain = 0
KVA1 271814Z 21013KT 24/12 A3015 RMK A01 T02350121  RH  049%=      5-min Rain = 0
KVA1 271815Z 21013KT 23/12 A3015 RMK A01 T02330121  RH  049%=      5-min Rain = 0
KVA1 271816Z 21010KT 23/12 A3015 RMK A01 T02320122  RH  050%=      5-min Rain = 0
KVA1 271817Z 21011KT 23/12 A3015 RMK A01 T02320122  RH  050%=      5-min Rain = 0
KVA1 271818Z 20011KT 23/12 A3015 RMK A01 T02320122  RH  050%=      5-min Rain = 0
KVA1 271819Z 20011KT 23/12 A3015 RMK A01 T02320123  RH  050%=      5-min Rain = 0
KVA1 271820Z 22011KT 23/12 A3014 RMK A01 T02320124  RH  050%=      5-min Rain = 0
KVA1 271821Z 22013KT 23/12 A3015 RMK A01 T02340124  RH  050%=      5-min Rain = 0
KVA1 271822Z 21014KT 24/12 A3014 RMK A01 T02350123  RH  050%=      5-min Rain = 0
KVA1 271823Z 20010KT 24/12 A3015 RMK A01 T02350123  RH  050%=      5-min Rain = 0
KVA1 271824Z 21013KT 24/13 A3014 RMK A01 T02360125  RH  049%=      5-min Rain = 0
KVA1 271825Z 21013KT 24/13 A3015 RMK A01 T02390125  RH  049%=      5-min Rain = 0
KVA1 271826Z 21013KT 24/12 A3014 RMK A01 T02390123  RH  048%=      5-min Rain = 0
KVA1 271827Z 20011KT 24/12 A3014 RMK A01 T02380124  RH  049%=      5-min Rain = 0
KVA1 271828Z 20015KT 24/12 A3014 RMK A01 T02380123  RH  048%=      5-min Rain = 0
KVA1 271829Z 20013KT 24/12 A3014 RMK A01 T02380124  RH  049%=      5-min Rain = 0
KVA1 271830Z 19011KT 24/13 A3014 RMK A01 T02380125  RH  049%=      5-min Rain = 0
KVA1 271831Z 20011KT 24/13 A3014 RMK A01 T02390125  RH  049%=      5-min Rain = 0
KVA1 271832Z 20012KT 24/12 A3014 RMK A01 T02410124  RH  048%=      5-min Rain = 0
KVA1 271833Z 21012KT 24/12 A3014 RMK A01 T02400123  RH  048%=      5-min Rain = 0
KVA1 271834Z 19012KT 24/12 A3014 RMK A01 T02400123  RH  048%=      5-min Rain = 0
KVA1 271835Z 20012KT 24/12 A3014 RMK A01 T02390123  RH  048%=      5-min Rain = 0
KVA1 271836Z 20011KT 24/12 A3014 RMK A01 T02370123  RH  049%=      5-min Rain = 0
KVA1 271837Z 19009KT 24/12 A3014 RMK A01 T02370124  RH  049%=      5-min Rain = 0
KVA1 271838Z 20012KT 24/13 A3014 RMK A01 T02390125  RH  049%=      5-min Rain = 0
KVA1 271839Z 20013KT 24/13 A3014 RMK A01 T02420125  RH  048%=      5-min Rain = 0
KVA1 271840Z 19014G19KT 24/12 A3014 RMK A01 T02440124  RH  047%=      5-min Rain = 0
KVA1 271841Z 19012G17KT 24/12 A3014 RMK A01 T02430122  RH  047%=      5-min Rain = 0
KVA1 271842Z 18010KT 24/12 A3014 RMK A01 T02410124  RH  048%=      5-min Rain = 0
KVA1 271843Z 20012KT 25/13 A3014 RMK A01 T02450127  RH  048%=      5-min Rain = 0
KVA1 271844Z 20013KT 25/12 A3014 RMK A01 T02460124  RH  046%=      5-min Rain = 0
KVA1 271845Z 21011KT 25/13 A3014 RMK A01 T02450125  RH  047%=      5-min Rain = 0
KVA1 271846Z 21011KT 25/12 A3014 RMK A01 T02450123  RH  047%=      5-min Rain = 0
KVA1 271847Z 21012KT 25/12 A3013 RMK A01 T02450124  RH  047%=      5-min Rain = 0
KVA1 271848Z 22012KT 25/12 A3013 RMK A01 T02460123  RH  046%=      5-min Rain = 0
KVA1 271849Z 22013KT 25/12 A3013 RMK A01 T02450123  RH  046%=      5-min Rain = 0
KVA1 271850Z 23009KT 24/12 A3013 RMK A01 T02430121  RH  046%=      5-min Rain = 0
KVA1 271851Z 23007KT 24/12 A3013 RMK A01 T02410121  RH  047%=      5-min Rain = 0
KVA1 271852Z 20007KT 24/12 A3013 RMK A01 T02400123  RH  048%=      5-min Rain = 0
KVA1 271853Z 19008KT 24/12 A3013 RMK A01 T02420123  RH  047%=      5-min Rain = 0
KVA1 271854Z 19011KT 24/12 A3013 RMK A01 T02430124  RH  047%=      5-min Rain = 0
KVA1 271855Z 20011KT 24/12 A3013 RMK A01 T02430124  RH  047%=      5-min Rain = 0
KVA1 271856Z 20010KT 25/12 A3013 RMK A01 T02450123  RH  046%=      5-min Rain = 0
KVA1 271857Z 21012KT 25/12 A3013 RMK A01 T02460124  RH  046%=      5-min Rain = 0
KVA1 271858Z 20009KT 25/12 A3013 RMK A01 T02460124  RH  046%=      5-min Rain = 0
KVA1 271859Z 20008KT 25/12 A3013 RMK A01 T02450123  RH  046%=      5-min Rain = 0
KVA1 271900Z 21012KT 24/12 A3013 RMK A01 T02440123  RH  047%=      5-min Rain = 0
KVA1 271901Z 21008KT 24/12 A3013 RMK A01 T02420122  RH  047%=      5-min Rain = 0
KVA1 271902Z 19009G14KT 24/12 A3013 RMK A01 T02420124  RH  048%=      5-min Rain = 0
KVA1 271903Z 19012KT 25/13 A3013 RMK A01 T02460125  RH  047%=      5-min Rain = 0
KVA1 271904Z 21011KT 25/13 A3013 RMK A01 T02490125  RH  046%=      5-min Rain = 0
KVA1 271905Z 20012KT 25/12 A3013 RMK A01 T02480123  RH  046%=      5-min Rain = 0
KVA1 271906Z 19010KT 25/12 A3013 RMK A01 T02470122  RH  046%=      5-min Rain = 0
KVA1 271907Z 19005KT 25/12 A3013 RMK A01 T02450123  RH  046%=      5-min Rain = 0
KVA1 271908Z 22007KT 25/12 A3013 RMK A01 T02450123  RH  047%=      5-min Rain = 0
KVA1 271909Z 20007KT 25/12 A3012 RMK A01 T02470124  RH  046%=      5-min Rain = 0
KVA1 271910Z 20009KT 25/12 A3012 RMK A01 T02470124  RH  046%=      5-min Rain = 0
KVA1 271911Z 21010KT 25/12 A3012 RMK A01 T02460124  RH  046%=      5-min Rain = 0
KVA1 271912Z 21012KT 25/13 A3012 RMK A01 T02490125  RH  046%=      5-min Rain = 0
KVA1 271913Z 20012KT 25/12 A3012 RMK A01 T02510122  RH  045%=      5-min Rain = 0
KVA1 271914Z 20011KT 25/12 A3012 RMK A01 T02490122  RH  045%=      5-min Rain = 0
KVA1 271915Z 21009KT 25/12 A3012 RMK A01 T02480122  RH  045%=      5-min Rain = 0
KVA1 271916Z 21008KT 25/12 A3012 RMK A01 T02470121  RH  046%=      5-min Rain = 0
KVA1 271917Z 19008KT 25/12 A3012 RMK A01 T02450119  RH  045%=      5-min Rain = 0
KVA1 271918Z 20008KT 24/12 A3012 RMK A01 T02420120  RH  046%=      5-min Rain = 0
KVA1 271919Z 21012KT 24/12 A3012 RMK A01 T02430120  RH  046%=      5-min Rain = 0
KVA1 271920Z 23013KT 24/12 A3012 RMK A01 T02440120  RH  046%=      5-min Rain = 0
KVA1 271921Z 23013KT 24/12 A3012 RMK A01 T02440119  RH  045%=      5-min Rain = 0
KVA1 271922Z 23011KT 24/12 A3012 RMK A01 T02430119  RH  046%=      5-min Rain = 0
KVA1 271923Z 23011KT 25/12 A3012 RMK A01 T02450120  RH  046%=      5-min Rain = 0
KVA1 271924Z 21010KT 25/12 A3012 RMK A01 T02460120  RH  045%=      5-min Rain = 0
KVA1 271925Z 20010KT 25/12 A3012 RMK A01 T02460121  RH  046%=      5-min Rain = 0
KVA1 271926Z 19009KT 25/12 A3012 RMK A01 T02470120  RH  045%=      5-min Rain = 0
KVA1 271927Z 21011KT 25/12 A3012 RMK A01 T02450121  RH  046%=      5-min Rain = 0
KVA1 271928Z 22011KT 25/12 A3012 RMK A01 T02460122  RH  046%=      5-min Rain = 0
KVA1 271929Z 22012KT 25/12 A3012 RMK A01 T02480119  RH  045%=      5-min Rain = 0
KVA1 271930Z 21010KT 25/12 A3012 RMK A01 T02470119  RH  045%=      5-min Rain = 0
KVA1 271931Z 21006KT 25/12 A3012 RMK A01 T02470120  RH  045%=      5-min Rain = 0
KVA1 271932Z 21007KT 25/12 A3011 RMK A01 T02450119  RH  045%=      5-min Rain = 0
KVA1 271933Z 22007KT 25/12 A3011 RMK A01 T02450120  RH  046%=      5-min Rain = 0
KVA1 271934Z 21011KT 25/12 A3011 RMK A01 T02470122  RH  046%=      5-min Rain = 0
KVA1 271935Z 21010KT 25/12 A3011 RMK A01 T02470119  RH  045%=      5-min Rain = 0
KVA1 271936Z 20008KT 25/12 A3011 RMK A01 T02460121  RH  046%=      5-min Rain = 0
KVA1 271937Z 18008KT 25/12 A3011 RMK A01 T02480121  RH  045%=      5-min Rain = 0
KVA1 271938Z 18009KT 25/12 A3011 RMK A01 T02490120  RH  045%=      5-min Rain = 0
KVA1 271939Z 21012KT 25/12 A3011 RMK A01 T02490121  RH  045%=      5-min Rain = 0
KVA1 271940Z 22009KT 25/12 A3011 RMK A01 T02490121  RH  045%=      5-min Rain = 0
KVA1 271941Z 19010KT 25/12 A3011 RMK A01 T02490121  RH  045%=      5-min Rain = 0
KVA1 271942Z 19009KT 25/12 A3011 RMK A01 T02490121  RH  045%=      5-min Rain = 0
KVA1 271943Z 19010KT 25/12 A3011 RMK A01 T02500121  RH  045%=      5-min Rain = 0
KVA1 271944Z 22009KT 25/12 A3011 RMK A01 T02500121  RH  044%=      5-min Rain = 0
KVA1 271945Z 23008KT 25/12 A3011 RMK A01 T02510120  RH  044%=      5-min Rain = 0
KVA1 271946Z 23010KT 25/12 A301 RMK A01 T02500120  RH  044%=      5-min Rain = 0
KVA1 271947Z 23012KT 25/12 A301 RMK A01 T02490119  RH  044%=      5-min Rain = 0
KVA1 271948Z 21010KT 25/12 A301 RMK A01 T02480119  RH  044%=      5-min Rain = 0
KVA1 271949Z 21007KT 25/12 A301 RMK A01 T02480120  RH  045%=      5-min Rain = 0
KVA1 271950Z 22009KT 25/12 A301 RMK A01 T02490120  RH  045%=      5-min Rain = 0
KVA1 271951Z 22010KT 25/12 A301 RMK A01 T02480119  RH  044%=      5-min Rain = 0
KVA1 271952Z 22011KT 25/12 A301 RMK A01 T02480120  RH  045%=      5-min Rain = 0
KVA1 271953Z 21008KT 25/12 A301 RMK A01 T02490119  RH  044%=      5-min Rain = 0
KVA1 271954Z 20006KT 25/12 A301 RMK A01 T02480121  RH  045%=      5-min Rain = 0
KVA1 271955Z 20008KT 25/12 A301 RMK A01 T02500122  RH  045%=      5-min Rain = 0
KVA1 271956Z 18011KT 25/12 A301 RMK A01 T02520121  RH  044%=      5-min Rain = 0
KVA1 271957Z 18007KT 25/12 A301 RMK A01 T02510119  RH  044%=      5-min Rain = 0
KVA1 271958Z 18005G10KT 25/12 A301 RMK A01 T02490120  RH  045%=      5-min Rain = 0
KVA1 271959Z 20010KT 25/12 A301 RMK A01 T02490121  RH  045%=      5-min Rain = 0
KVA1 272000Z 21012KT 25/12 A301 RMK A01 T02510122  RH  045%=      5-min Rain = 0
KVA1 272001Z 22012KT 25/12 A301 RMK A01 T02500121  RH  045%=      5-min Rain = 0
KVA1 272002Z 21011KT 25/12 A301 RMK A01 T02480120  RH  045%=      5-min Rain = 0
KVA1 272003Z 21011KT 25/12 A301 RMK A01 T02470120  RH  045%=      5-min Rain = 0
KVA1 272004Z 22010KT 25/12 A301 RMK A01 T02470119  RH  045%=      5-min Rain = 0
KVA1 272005Z 22010KT 25/12 A301 RMK A01 T02470119  RH  045%=      5-min Rain = 0
KVA1 272006Z 21008KT 25/12 A301 RMK A01 T02480121  RH  045%=      5-min Rain = 0
KVA1 272007Z 20009KT 25/12 A301 RMK A01 T02510121  RH  044%=      5-min Rain = 0
KVA1 272008Z 21008KT 25/12 A3009 RMK A01 T02520120  RH  044%=      5-min Rain = 0
KVA1 272009Z 20008KT 25/12 A3009 RMK A01 T02500119  RH  044%=      5-min Rain = 0
KVA1 272010Z 19010KT 25/12 A3009 RMK A01 T02480120  RH  045%=      5-min Rain = 0
KVA1 272011Z 18008KT 25/12 A3009 RMK A01 T02480120  RH  045%=      5-min Rain = 0
KVA1 272012Z 18006KT 25/12 A3009 RMK A01 T02480120  RH  045%=      5-min Rain = 0
KVA1 272013Z 20010KT 25/12 A3009 RMK A01 T02480119  RH  045%=      5-min Rain = 0
KVA1 272014Z 19008KT 25/12 A3009 RMK A01 T02490120  RH  044%=      5-min Rain = 0
KVA1 272015Z 18009KT 25/12 A3009 RMK A01 T02510118  RH  043%=      5-min Rain = 0
KVA1 272016Z 18008KT 25/12 A3009 RMK A01 T02500118  RH  044%=      5-min Rain = 0
KVA1 272017Z 20007KT 25/12 A3009 RMK A01 T02500120  RH  044%=      5-min Rain = 0
KVA1 272018Z 20006KT 25/12 A3009 RMK A01 T02500118  RH  044%=      5-min Rain = 0
KVA1 272019Z 21005KT 25/12 A3009 RMK A01 T02500118  RH  044%=      5-min Rain = 0
KVA1 272020Z 21005KT 25/12 A3009 RMK A01 T02490118  RH  044%=      5-min Rain = 0
KVA1 272021Z 21007KT 25/12 A3009 RMK A01 T02500118  RH  044%=      5-min Rain = 0
KVA1 272022Z 20006KT 25/12 A3009 RMK A01 T02500118  RH  044%=      5-min Rain = 0
KVA1 272023Z 19007KT 25/12 A3009 RMK A01 T02500118  RH  044%=      5-min Rain = 0
KVA1 272024Z 18006KT 25/12 A3009 RMK A01 T02490115  RH  043%=      5-min Rain = 0
KVA1 272025Z 18007KT 25/12 A3009 RMK A01 T02470116  RH  044%=      5-min Rain = 0
KVA1 272026Z 19009KT 25/12 A3009 RMK A01 T02470118  RH  044%=      5-min Rain = 0
KVA1 272027Z 19010KT 25/12 A3009 RMK A01 T02500118  RH  044%=      5-min Rain = 0
KVA1 272028Z 19007KT 25/12 A3009 RMK A01 T02490117  RH  044%=      5-min Rain = 0
KVA1 272029Z 20005KT 25/12 A3008 RMK A01 T02490120  RH  044%=      5-min Rain = 0
KVA1 272030Z 21006KT 25/12 A3008 RMK A01 T02520119  RH  043%=      5-min Rain = 0
KVA1 272031Z 22008KT 25/12 A3008 RMK A01 T02530118  RH  043%=      5-min Rain = 0
KVA1 272032Z 24010KT 25/12 A3008 RMK A01 T02530119  RH  043%=      5-min Rain = 0
KVA1 272033Z 24010KT 25/12 A3008 RMK A01 T02530118  RH  043%=      5-min Rain = 0
KVA1 272034Z 24010KT 26/12 A3008 RMK A01 T02550118  RH  042%=      5-min Rain = 0
KVA1 272035Z 22009KT 25/12 A3008 RMK A01 T02540118  RH  042%=      5-min Rain = 0
KVA1 272036Z 24008KT 25/12 A3008 RMK A01 T02540118  RH  043%=      5-min Rain = 0
KVA1 272037Z 23007KT 26/12 A3009 RMK A01 T02560120  RH  043%=      5-min Rain = 0
KVA1 272038Z 22008KT 26/12 A3009 RMK A01 T02560119  RH  042%=      5-min Rain = 0
KVA1 272039Z 22004KT 25/12 A3008 RMK A01 T02540117  RH  042%=      5-min Rain = 0
KVA1 272040Z 22007KT 25/12 A3008 RMK A01 T02540118  RH  043%=      5-min Rain = 0
KVA1 272041Z 21008KT 25/12 A3009 RMK A01 T02540118  RH  042%=      5-min Rain = 0
KVA1 272042Z 21007KT 25/12 A3008 RMK A01 T02540120  RH  043%=      5-min Rain = 0
KVA1 272043Z 21007KT 26/12 A3008 RMK A01 T02550121  RH  043%=      5-min Rain = 0
KVA1 272044Z 20011KT 26/12 A3008 RMK A01 T02560121  RH  043%=      5-min Rain = 0
KVA1 272045Z 20008KT 26/12 A3008 RMK A01 T02570120  RH  043%=      5-min Rain = 0
KVA1 272046Z 19008KT 26/12 A3008 RMK A01 T02560121  RH  043%=      5-min Rain = 0
KVA1 272047Z 18010KT 26/12 A3008 RMK A01 T02560120  RH  043%=      5-min Rain = 0
KVA1 272048Z 18010KT 26/12 A3008 RMK A01 T02560121  RH  043%=      5-min Rain = 0
KVA1 272049Z 19006KT 26/12 A3008 RMK A01 T02600122  RH  042%=      5-min Rain = 0
KVA1 272050Z 18008KT 26/12 A3008 RMK A01 T02610121  RH  042%=      5-min Rain = 0
KVA1 272051Z 18008KT 26/12 A3008 RMK A01 T02610121  RH  042%=      5-min Rain = 0
KVA1 272052Z 18007KT 26/12 A3008 RMK A01 T02610122  RH  042%=      5-min Rain = 0
KVA1 272053Z 20007KT 26/12 A3008 RMK A01 T02610121  RH  042%=      5-min Rain = 0
KVA1 272054Z 21010KT 26/12 A3008 RMK A01 T02580120  RH  042%=      5-min Rain = 0
KVA1 272055Z 21011KT 26/12 A3008 RMK A01 T02590117  RH  041%=      5-min Rain = 0
KVA1 272056Z 21008KT 26/12 A3008 RMK A01 T02590116  RH  041%=      5-min Rain = 0
KVA1 272057Z 23006KT 26/12 A3008 RMK A01 T02600118  RH  041%=      5-min Rain = 0
KVA1 272058Z 22005KT 26/12 A3008 RMK A01 T02630119  RH  041%=      5-min Rain = 0
KVA1 272059Z 21009KT 27/12 A3008 RMK A01 T02650118  RH  040%=      5-min Rain = 0
KVA1 272100Z 22007KT 26/12 A3008 RMK A01 T02640116  RH  040%=      5-min Rain = 0
KVA1 272101Z 23002KT 26/12 A3008 RMK A01 T02610116  RH  040%=      5-min Rain = 0
KVA1 272102Z 19006KT 26/12 A3008 RMK A01 T02610118  RH  041%=      5-min Rain = 0
KVA1 272103Z 17007KT 26/12 A3008 RMK A01 T02620117  RH  040%=      5-min Rain = 0
KVA1 272104Z 17008KT 26/12 A3008 RMK A01 T02620117  RH  040%=      5-min Rain = 0
KVA1 272105Z 18010G15KT 26/12 A3007 RMK A01 T02620118  RH  041%=      5-min Rain = 0
KVA1 272106Z 20009KT 26/12 A3008 RMK A01 T02640121  RH  041%=      5-min Rain = 0
KVA1 272107Z 22009KT 27/12 A3008 RMK A01 T02670122  RH  041%=      5-min Rain = 0
KVA1 272108Z 20011KT 27/12 A3008 RMK A01 T02680121  RH  040%=      5-min Rain = 0
KVA1 272109Z 20009KT 27/12 A3008 RMK A01 T02660119  RH  040%=      5-min Rain = 0
KVA1 272110Z 20006KT 26/12 A3008 RMK A01 T02600117  RH  041%=      5-min Rain = 0
KVA1 272111Z 18005KT 26/12 A3007 RMK A01 T02580117  RH  041%=      5-min Rain = 0
KVA1 272112Z 21011G16KT 26/12 A3007 RMK A01 T02570118  RH  042%=      5-min Rain = 0
KVA1 272113Z 20009KT 26/12 A3007 RMK A01 T02580120  RH  042%=      5-min Rain = 0
KVA1 272114Z 20010KT 26/12 A3007 RMK A01 T02600120  RH  042%=      5-min Rain = 0
KVA1 272115Z 22008KT 26/12 A3007 RMK A01 T02590120  RH  042%=      5-min Rain = 0
KVA1 272116Z 22005KT 26/12 A3007 RMK A01 T02560118  RH  042%=      5-min Rain = 0
KVA1 272117Z 25006KT 26/12 A3007 RMK A01 T02550117  RH  042%=      5-min Rain = 0
KVA1 272118Z 25005KT 26/11 A3007 RMK A01 T02560114  RH  041%=      5-min Rain = 0
KVA1 272119Z 27004KT 26/11 A3007 RMK A01 T02570113  RH  040%=      5-min Rain = 0
KVA1 272120Z 27003KT 26/11 A3007 RMK A01 T02560112  RH  040%=      5-min Rain = 0
KVA1 272121Z 26004KT 26/11 A3006 RMK A01 T02560113  RH  041%=      5-min Rain = 0
KVA1 272122Z 24005KT 26/11 A3006 RMK A01 T02560114  RH  041%=      5-min Rain = 0
KVA1 272123Z 19008KT 26/12 A3006 RMK A01 T02570116  RH  041%=      5-min Rain = 0
KVA1 272124Z 20009KT 26/12 A3006 RMK A01 T02580119  RH  042%=      5-min Rain = 0
KVA1 272125Z 19007KT 26/12 A3006 RMK A01 T02580120  RH  042%=      5-min Rain = 0
KVA1 272126Z 18007KT 26/12 A3006 RMK A01 T02600122  RH  042%=      5-min Rain = 0
KVA1 272127Z 18008KT 26/12 A3006 RMK A01 T02630121  RH  041%=      5-min Rain = 0
KVA1 272128Z 17007KT 26/12 A3006 RMK A01 T02610119  RH  041%=      5-min Rain = 0
KVA1 272129Z 17008KT 26/12 A3006 RMK A01 T02590120  RH  042%=      5-min Rain = 0
KVA1 272130Z 17007KT 26/12 A3006 RMK A01 T02590120  RH  042%=      5-min Rain = 0
KVA1 272131Z 18011KT 26/12 A3006 RMK A01 T02610118  RH  041%=      5-min Rain = 0
KVA1 272132Z 20009KT 26/12 A3006 RMK A01 T02610115  RH  040%=      5-min Rain = 0
KVA1 272133Z 20007KT 26/12 A3006 RMK A01 T02590115  RH  041%=      5-min Rain = 0
KVA1 272134Z 21007G12KT 26/12 A3006 RMK A01 T02600115  RH  040%=      5-min Rain = 0
KVA1 272135Z 20011KT 26/12 A3006 RMK A01 T02590118  RH  041%=      5-min Rain = 0
KVA1 272136Z 19010G15KT 26/12 A3006 RMK A01 T02600119  RH  042%=      5-min Rain = 0
KVA1 272137Z 19011KT 26/12 A3006 RMK A01 T02590118  RH  041%=      5-min Rain = 0
KVA1 272138Z 18009KT 26/12 A3006 RMK A01 T02570118  RH  042%=      5-min Rain = 0
KVA1 272139Z 18009KT 26/12 A3006 RMK A01 T02560119  RH  042%=      5-min Rain = 0
KVA1 272140Z 18008KT 26/12 A3006 RMK A01 T02560118  RH  042%=      5-min Rain = 0
KVA1 272141Z 20005KT 26/12 A3006 RMK A01 T02550118  RH  043%=      5-min Rain = 0
KVA1 272142Z 17006KT 26/12 A3006 RMK A01 T02560119  RH  042%=      5-min Rain = 0
KVA1 272143Z 16007KT 26/12 A3006 RMK A01 T02580119  RH  042%=      5-min Rain = 0
KVA1 272144Z 16009KT 26/12 A3006 RMK A01 T02590118  RH  041%=      5-min Rain = 0
KVA1 272145Z 19011KT 26/12 A3006 RMK A01 T02590118  RH  042%=      5-min Rain = 0
KVA1 272146Z 20010KT 26/12 A3006 RMK A01 T02610116  RH  040%=      5-min Rain = 0
KVA1 272147Z 21010KT 26/12 A3006 RMK A01 T02610115  RH  040%=      5-min Rain = 0
KVA1 272148Z 21009KT 26/12 A3006 RMK A01 T02610115  RH  040%=      5-min Rain = 0
KVA1 272149Z 21007KT 26/11 A3006 RMK A01 T02600114  RH  040%=      5-min Rain = 0
KVA1 272150Z 20004KT 26/11 A3006 RMK A01 T02590114  RH  040%=      5-min Rain = 0
KVA1 272151Z 20008KT 26/12 A3005 RMK A01 T02580115  RH  041%=      5-min Rain = 0
KVA1 272152Z 21007KT 26/12 A3005 RMK A01 T02580115  RH  041%=      5-min Rain = 0
KVA1 272153Z 22006KT 26/12 A3005 RMK A01 T02580115  RH  041%=      5-min Rain = 0
KVA1 272154Z 22008KT 26/12 A3005 RMK A01 T02570115  RH  041%=      5-min Rain = 0
KVA1 272155Z 22007KT 26/12 A3005 RMK A01 T02570115  RH  041%=      5-min Rain = 0
KVA1 272156Z 21006KT 26/12 A3005 RMK A01 T02580117  RH  041%=      5-min Rain = 0
KVA1 272157Z 22006KT 26/12 A3005 RMK A01 T02590116  RH  041%=      5-min Rain = 0
KVA1 272158Z 21008KT 26/12 A3005 RMK A01 T02600118  RH  041%=      5-min Rain = 0
KVA1 272159Z 20009KT 26/12 A3005 RMK A01 T02600118  RH  041%=      5-min Rain = 0
KVA1 272200Z 19009KT 26/12 A3005 RMK A01 T02590117  RH  041%=      5-min Rain = 0
KVA1 272201Z 18008KT 26/12 A3005 RMK A01 T02580118  RH  042%=      5-min Rain = 0
KVA1 272202Z 19008KT 26/12 A3005 RMK A01 T02580118  RH  041%=      5-min Rain = 0
KVA1 272203Z 19009KT 26/12 A3005 RMK A01 T02590117  RH  041%=      5-min Rain = 0
KVA1 272204Z 18007KT 26/12 A3005 RMK A01 T02590117  RH  041%=      5-min Rain = 0
KVA1 272205Z 19005KT 26/12 A3005 RMK A01 T02580118  RH  042%=      5-min Rain = 0
KVA1 272206Z 17008KT 26/12 A3005 RMK A01 T02600119  RH  041%=      5-min Rain = 0
KVA1 272207Z 16010KT 26/12 A3005 RMK A01 T02600118  RH  041%=      5-min Rain = 0
KVA1 272208Z 17010KT 26/12 A3005 RMK A01 T02610118  RH  041%=      5-min Rain = 0
KVA1 272209Z 19010KT 26/12 A3005 RMK A01 T02610118  RH  041%=      5-min Rain = 0
KVA1 272210Z 20009KT 26/12 A3005 RMK A01 T02610117  RH  041%=      5-min Rain = 0
KVA1 272211Z 20006KT 26/12 A3005 RMK A01 T02610116  RH  040%=      5-min Rain = 0
KVA1 272212Z 20006KT 26/12 A3005 RMK A01 T02600116  RH  041%=      5-min Rain = 0
KVA1 272213Z 21009KT 26/12 A3005 RMK A01 T02600117  RH  041%=      5-min Rain = 0
KVA1 272214Z 22009KT 26/12 A3005 RMK A01 T02620117  RH  040%=      5-min Rain = 0
KVA1 272215Z 23008KT 26/12 A3005 RMK A01 T02640117  RH  040%=      5-min Rain = 0
KVA1 272216Z 21007KT 26/12 A3005 RMK A01 T02640117  RH  040%=      5-min Rain = 0
KVA1 272217Z 20007KT 26/12 A3005 RMK A01 T02620116  RH  040%=      5-min Rain = 0
KVA1 272218Z 21006KT 26/12 A3005 RMK A01 T02610117  RH  041%=      5-min Rain = 0
KVA1 272219Z 20008KT 26/12 A3005 RMK A01 T02630118  RH  040%=      5-min Rain = 0
KVA1 272220Z 21006KT 26/12 A3005 RMK A01 T02640116  RH  040%=      5-min Rain = 0
KVA1 272221Z 18008KT 26/12 A3005 RMK A01 T02630116  RH  040%=      5-min Rain = 0
KVA1 272222Z 17006KT 26/12 A3005 RMK A01 T02610116  RH  040%=      5-min Rain = 0
KVA1 272223Z 17005KT 26/12 A3005 RMK A01 T02600116  RH  041%=      5-min Rain = 0
KVA1 272224Z 19007KT 26/12 A3005 RMK A01 T02590116  RH  041%=      5-min Rain = 0
KVA1 272225Z 20009KT 26/12 A3005 RMK A01 T02600116  RH  041%=      5-min Rain = 0
KVA1 272226Z 21010KT 26/12 A3005 RMK A01 T02620115  RH  040%=      5-min Rain = 0
KVA1 272227Z 20008KT 26/11 A3005 RMK A01 T02600114  RH  040%=      5-min Rain = 0
KVA1 272228Z 20008KT 26/11 A3005 RMK A01 T02580114  RH  040%=      5-min Rain = 0
KVA1 272229Z 20006KT 26/11 A3005 RMK A01 T02590114  RH  040%=      5-min Rain = 0
KVA1 272230Z 19008KT 26/11 A3005 RMK A01 T02600114  RH  040%=      5-min Rain = 0
KVA1 272231Z 19007KT 26/11 A3005 RMK A01 T02600113  RH  040%=      5-min Rain = 0
KVA1 272232Z 21005KT 26/11 A3005 RMK A01 T02590113  RH  040%=      5-min Rain = 0
KVA1 272233Z 19004KT 26/11 A3005 RMK A01 T02590113  RH  040%=      5-min Rain = 0
KVA1 272234Z 16009KT 26/11 A3005 RMK A01 T02590113  RH  040%=      5-min Rain = 0
KVA1 272235Z 15005KT 26/11 A3005 RMK A01 T02600113  RH  040%=      5-min Rain = 0
KVA1 272236Z 15004KT 26/11 A3005 RMK A01 T02600113  RH  040%=      5-min Rain = 0
KVA1 272237Z 17004KT 26/11 A3005 RMK A01 T02600114  RH  040%=      5-min Rain = 0
KVA1 272238Z 23006KT 26/11 A3005 RMK A01 T02610114  RH  040%=      5-min Rain = 0
KVA1 272239Z 23006KT 26/11 A3005 RMK A01 T02610114  RH  040%=      5-min Rain = 0
KVA1 272240Z 24005KT 26/12 A3005 RMK A01 T02610115  RH  040%=      5-min Rain = 0
KVA1 272241Z 23006KT 26/11 A3005 RMK A01 T02620114  RH  040%=      5-min Rain = 0
KVA1 272242Z 22005KT 26/12 A3005 RMK A01 T02640115  RH  039%=      5-min Rain = 0
KVA1 272243Z 19006KT 27/11 A3004 RMK A01 T02650114  RH  039%=      5-min Rain = 0
KVA1 272244Z 18006KT 26/11 A3004 RMK A01 T02630113  RH  039%=      5-min Rain = 0
KVA1 272245Z 18009KT 26/12 A3004 RMK A01 T02630115  RH  040%=      5-min Rain = 0
KVA1 272246Z 17008KT 26/11 A3004 RMK A01 T02640114  RH  039%=      5-min Rain = 0
KVA1 272247Z 17007KT 26/11 A3004 RMK A01 T02630114  RH  039%=      5-min Rain = 0
KVA1 272248Z 20008KT 26/12 A3004 RMK A01 T02630115  RH  040%=      5-min Rain = 0
KVA1 272249Z 21007KT 26/11 A3004 RMK A01 T02630114  RH  039%=      5-min Rain = 0
KVA1 272250Z 19006KT 26/11 A3004 RMK A01 T02610114  RH  040%=      5-min Rain = 0
KVA1 272251Z 18005KT 26/11 A3004 RMK A01 T02600114  RH  040%=      5-min Rain = 0
KVA1 272252Z 19009KT 26/11 A3004 RMK A01 T02590114  RH  040%=      5-min Rain = 0
KVA1 272253Z 20009KT 26/11 A3004 RMK A01 T02590114  RH  040%=      5-min Rain = 0
KVA1 272254Z 20005KT 26/11 A3004 RMK A01 T02590114  RH  040%=      5-min Rain = 0
KVA1 272255Z 18005KT 26/11 A3004 RMK A01 T02580114  RH  041%=      5-min Rain = 0
KVA1 272256Z 17003KT 26/12 A3004 RMK A01 T02580115  RH  041%=      5-min Rain = 0
KVA1 272257Z 19006KT 26/11 A3004 RMK A01 T02590114  RH  040%=      5-min Rain = 0
KVA1 272258Z 19007KT 26/12 A3004 RMK A01 T02600115  RH  040%=      5-min Rain = 0
KVA1 272259Z 20007KT 26/12 A3004 RMK A01 T02620116  RH  040%=      5-min Rain = 0
KVA1 272300Z 20006KT 27/12 A3004 RMK A01 T02650116  RH  040%=      5-min Rain = 0
KVA1 272301Z 22005KT 27/12 A3004 RMK A01 T02660115  RH  039%=      5-min Rain = 0
KVA1 272302Z 22004KT 27/11 A3004 RMK A01 T02660114  RH  039%=      5-min Rain = 0
KVA1 272303Z 17003KT 27/11 A3004 RMK A01 T02660114  RH  039%=      5-min Rain = 0
KVA1 272304Z 16002KT 27/12 A3004 RMK A01 T02660115  RH  039%=      5-min Rain = 0
KVA1 272305Z 19003KT 27/12 A3004 RMK A01 T02660115  RH  039%=      5-min Rain = 0
KVA1 272306Z 19005KT 27/12 A3004 RMK A01 T02660116  RH  039%=      5-min Rain = 0
KVA1 272307Z 18006KT 27/12 A3004 RMK A01 T02660115  RH  039%=      5-min Rain = 0
KVA1 272308Z 17004KT 27/12 A3004 RMK A01 T02650115  RH  039%=      5-min Rain = 0
KVA1 272309Z 16002KT 27/11 A3004 RMK A01 T02650114  RH  039%=      5-min Rain = 0
KVA1 272310Z 18007KT 26/11 A3004 RMK A01 T02640114  RH  039%=      5-min Rain = 0
KVA1 272311Z 19007KT 26/11 A3004 RMK A01 T02630114  RH  039%=      5-min Rain = 0
KVA1 272312Z 20004KT 26/11 A3004 RMK A01 T02630114  RH  039%=      5-min Rain = 0
KVA1 272313Z 21005KT 26/11 A3004 RMK A01 T02630114  RH  039%=      5-min Rain = 0
KVA1 272314Z 22007KT 26/11 A3004 RMK A01 T02640113  RH  039%=      5-min Rain = 0
KVA1 272315Z 22009KT 26/11 A3004 RMK A01 T02630114  RH  039%=      5-min Rain = 0
KVA1 272316Z 22007KT 26/11 A3004 RMK A01 T02640114  RH  039%=      5-min Rain = 0
KVA1 272317Z 22006KT 26/11 A3004 RMK A01 T02640113  RH  039%=      5-min Rain = 0
KVA1 272318Z 20004KT 26/11 A3004 RMK A01 T02640114  RH  039%=      5-min Rain = 0
KVA1 272319Z 23005KT 26/11 A3004 RMK A01 T02640114  RH  039%=      5-min Rain = 0
KVA1 272320Z 24003KT 26/11 A3004 RMK A01 T02640114  RH  039%=      5-min Rain = 0
KVA1 272321Z 23005KT 26/12 A3004 RMK A01 T02640115  RH  039%=      5-min Rain = 0
KVA1 272322Z 22005KT 26/11 A3004 RMK A01 T02640114  RH  039%=      5-min Rain = 0
KVA1 272323Z 22004KT 26/11 A3004 RMK A01 T02640114  RH  039%=      5-min Rain = 0
KVA1 272324Z 20002KT 26/11 A3004 RMK A01 T02630114  RH  039%=      5-min Rain = 0
KVA1 272325Z 30001KT 26/11 A3004 RMK A01 T02620113  RH  039%=      5-min Rain = 0
KVA1 272326Z 28001KT 26/11 A3004 RMK A01 T02620114  RH  039%=      5-min Rain = 0
KVA1 272327Z 21001KT 26/11 A3004 RMK A01 T02630114  RH  039%=      5-min Rain = 0
KVA1 272328Z 20003KT 26/11 A3004 RMK A01 T02630114  RH  039%=      5-min Rain = 0
KVA1 272329Z 19002KT 26/11 A3004 RMK A01 T02630114  RH  039%=      5-min Rain = 0
KVA1 272330Z 18003KT 26/12 A3004 RMK A01 T02630115  RH  040%=      5-min Rain = 0
KVA1 272331Z 16003KT 26/11 A3004 RMK A01 T02620114  RH  040%=      5-min Rain = 0
KVA1 272332Z 20001KT 26/11 A3004 RMK A01 T02610114  RH  040%=      5-min Rain = 0
KVA1 272333Z 21002KT 26/11 A3004 RMK A01 T02600114  RH  040%=      5-min Rain = 0
KVA1 272334Z 23001KT 26/11 A3004 RMK A01 T02600114  RH  040%=      5-min Rain = 0
KVA1 272335Z 24000KT 26/11 A3004 RMK A01 T02590113  RH  040%=      5-min Rain = 0
KVA1 272336Z 18001KT 26/12 A3004 RMK A01 T02590115  RH  040%=      5-min Rain = 0
KVA1 272337Z 21004KT 26/12 A3004 RMK A01 T02600115  RH  040%=      5-min Rain = 0
KVA1 272338Z 21004KT 26/11 A3004 RMK A01 T02610114  RH  040%=      5-min Rain = 0
KVA1 272339Z 21004KT 26/11 A3004 RMK A01 T02610114  RH  040%=      5-min Rain = 0
KVA1 272340Z 20002KT 26/11 A3004 RMK A01 T02600113  RH  040%=      5-min Rain = 0
KVA1 272341Z 18003KT 26/11 A3004 RMK A01 T02600113  RH  040%=      5-min Rain = 0
KVA1 272342Z 18004KT 26/11 A3004 RMK A01 T02600114  RH  040%=      5-min Rain = 0
KVA1 272343Z 14005KT 26/11 A3004 RMK A01 T02610113  RH  040%=      5-min Rain = 0
KVA1 272344Z 13003KT 26/11 A3004 RMK A01 T02620112  RH  039%=      5-min Rain = 0
KVA1 272345Z 16004KT 26/11 A3004 RMK A01 T02610113  RH  040%=      5-min Rain = 0
KVA1 272346Z 17004KT 26/11 A3004 RMK A01 T02600113  RH  040%=      5-min Rain = 0
KVA1 272347Z 19002KT 26/11 A3004 RMK A01 T02610112  RH  039%=      5-min Rain = 0
KVA1 272348Z 17001KT 26/11 A3004 RMK A01 T02610112  RH  039%=      5-min Rain = 0
KVA1 272349Z 19003KT 26/11 A3004 RMK A01 T02610112  RH  039%=      5-min Rain = 0
KVA1 272350Z 18005KT 26/11 A3004 RMK A01 T02610112  RH  039%=      5-min Rain = 0
KVA1 272351Z 16005KT 26/11 A3004 RMK A01 T02600111  RH  039%=      5-min Rain = 0
KVA1 272352Z 16004KT 26/11 A3004 RMK A01 T02600112  RH  040%=      5-min Rain = 0
KVA1 272353Z 13004KT 26/11 A3004 RMK A01 T02600111  RH  039%=      5-min Rain = 0
KVA1 272354Z 12003KT 26/11 A3004 RMK A01 T02600112  RH  039%=      5-min Rain = 0
KVA1 272355Z 14004KT 26/11 A3004 RMK A01 T02600112  RH  039%=      5-min Rain = 0
KVA1 272356Z 16004KT 26/11 A3004 RMK A01 T02600112  RH  040%=      5-min Rain = 0
KVA1 272357Z 16003KT 26/11 A3004 RMK A01 T02610112  RH  039%=      5-min Rain = 0
KVA1 272358Z 16004KT 26/11 A3004 RMK A01 T02620112  RH  039%=      5-min Rain = 0
KVA1 272359Z 16005KT 26/11 A3004 RMK A01 T02620111  RH  039%=      5-min Rain = 0
KVA1 280000Z 17003KT 26/11 A3004 RMK A01 T02620111  RH  039%=      5-min Rain = 0
KVA1 280001Z 18003KT 26/11 A3004 RMK A01 T02620112  RH  039%=      5-min Rain = 0
KVA1 280002Z 18004KT 26/11 A3004 RMK A01 T02630110  RH  039%=      5-min Rain = 0
KVA1 280003Z 20004KT 26/11 A3004 RMK A01 T02620110  RH  038%=      5-min Rain = 0
KVA1 280004Z 20004KT 26/11 A3004 RMK A01 T02620110  RH  038%=      5-min Rain = 0
KVA1 280005Z 19004KT 26/11 A3004 RMK A01 T02620110  RH  038%=      5-min Rain = 0
KVA1 280006Z 19003KT 26/11 A3004 RMK A01 T02620110  RH  039%=      5-min Rain = 0
KVA1 280007Z 18003KT 26/11 A3004 RMK A01 T02620109  RH  038%=      5-min Rain = 0
KVA1 280008Z 16002KT 26/11 A3004 RMK A01 T02610109  RH  038%=      5-min Rain = 0
KVA1 280009Z 17003KT 26/11 A3004 RMK A01 T02610109  RH  039%=      5-min Rain = 0
KVA1 280010Z 17005KT 26/11 A3004 RMK A01 T02610109  RH  039%=      5-min Rain = 0
KVA1 280011Z 17004KT 26/11 A3004 RMK A01 T02610108  RH  038%=      5-min Rain = 0
KVA1 280012Z 17004KT 26/11 A3004 RMK A01 T02610109  RH  039%=      5-min Rain = 0
KVA1 280013Z 17005KT 26/11 A3004 RMK A01 T02610109  RH  039%=      5-min Rain = 0
KVA1 280014Z 17003KT 26/11 A3004 RMK A01 T02610109  RH  039%=      5-min Rain = 0
KVA1 280015Z 18004KT 26/11 A3004 RMK A01 T02610110  RH  039%=      5-min Rain = 0
KVA1 280016Z 18003KT 26/11 A3004 RMK A01 T02610110  RH  039%=      5-min Rain = 0
KVA1 280017Z 19002KT 26/11 A3004 RMK A01 T02610109  RH  039%=      5-min Rain = 0
KVA1 280018Z 20002KT 26/11 A3004 RMK A01 T02600109  RH  039%=      5-min Rain = 0
KVA1 280019Z 21001KT 26/11 A3004 RMK A01 T02590109  RH  039%=      5-min Rain = 0
KVA1 280020Z 21002KT 26/11 A3004 RMK A01 T02590110  RH  039%=      5-min Rain = 0
KVA1 280021Z 17001KT 26/11 A3004 RMK A01 T02590109  RH  039%=      5-min Rain = 0
KVA1 280022Z 17001KT 26/11 A3004 RMK A01 T02590109  RH  039%=      5-min Rain = 0
KVA1 280023Z 16002KT 26/11 A3004 RMK A01 T02590108  RH  039%=      5-min Rain = 0
KVA1 280024Z 16002KT 26/11 A3004 RMK A01 T02590109  RH  039%=      5-min Rain = 0
KVA1 280025Z 16002KT 26/11 A3004 RMK A01 T02590109  RH  039%=      5-min Rain = 0
KVA1 280026Z 15001KT 26/11 A3004 RMK A01 T02590108  RH  039%=      5-min Rain = 0
KVA1 280027Z 14002KT 26/11 A3004 RMK A01 T02580108  RH  039%=      5-min Rain = 0
KVA1 280028Z 15001KT 26/11 A3004 RMK A01 T02580109  RH  039%=      5-min Rain = 0
KVA1 280029Z 14000KT 26/11 A3004 RMK A01 T02580109  RH  039%=      5-min Rain = 0
KVA1 280030Z 13001KT 26/11 A3004 RMK A01 T02580109  RH  039%=      5-min Rain = 0
KVA1 280031Z 15001KT 26/11 A3004 RMK A01 T02580109  RH  039%=      5-min Rain = 0
KVA1 280032Z 14001KT 26/11 A3004 RMK A01 T02580108  RH  039%=      5-min Rain = 0
KVA1 280033Z 15001KT 26/11 A3004 RMK A01 T02580110  RH  039%=      5-min Rain = 0
KVA1 280034Z 16002KT 26/11 A3004 RMK A01 T02570110  RH  039%=      5-min Rain = 0
KVA1 280035Z 16001KT 26/11 A3004 RMK A01 T02570109  RH  039%=      5-min Rain = 0
KVA1 280036Z 16001KT 26/11 A3004 RMK A01 T02580109  RH  039%=      5-min Rain = 0
KVA1 280037Z 15001KT 26/11 A3004 RMK A01 T02580110  RH  040%=      5-min Rain = 0
KVA1 280038Z 16001KT 26/11 A3004 RMK A01 T02570110  RH  040%=      5-min Rain = 0
KVA1 280039Z 15000KT 26/11 A3004 RMK A01 T02570110  RH  040%=      5-min Rain = 0
KVA1 280040Z 17001KT 26/11 A3004 RMK A01 T02570111  RH  040%=      5-min Rain = 0
KVA1 280041Z 18001KT 26/11 A3004 RMK A01 T02570110  RH  040%=      5-min Rain = 0
KVA1 280042Z 20001KT 26/11 A3004 RMK A01 T02560109  RH  040%=      5-min Rain = 0
KVA1 280043Z 23000KT 26/11 A3004 RMK A01 T02570109  RH  040%=      5-min Rain = 0
KVA1 280044Z 00000KT 26/11 A3004 RMK A01 T02570109  RH  040%=      5-min Rain = 0
KVA1 280045Z 00000KT 26/11 A3004 RMK A01 T02560109  RH  040%=      5-min Rain = 0
KVA1 280046Z 00000KT 26/11 A3004 RMK A01 T02560109  RH  040%=      5-min Rain = 0
KVA1 280047Z 00000KT 26/11 A3004 RMK A01 T02560110  RH  040%=      5-min Rain = 0
KVA1 280048Z 00000KT 26/11 A3004 RMK A01 T02560109  RH  040%=      5-min Rain = 0
KVA1 280049Z 00000KT 26/11 A3004 RMK A01 T02560108  RH  040%=      5-min Rain = 0
KVA1 280050Z 09000KT 26/11 A3004 RMK A01 T02550108  RH  040%=      5-min Rain = 0
KVA1 280051Z 09000KT 26/11 A3004 RMK A01 T02550108  RH  040%=      5-min Rain = 0
KVA1 280052Z 00000KT 26/11 A3004 RMK A01 T02550109  RH  040%=      5-min Rain = 0
KVA1 280053Z 00000KT 26/11 A3004 RMK A01 T02550110  RH  040%=      5-min Rain = 0
KVA1 280054Z 00000KT 26/11 A3004 RMK A01 T02550110  RH  040%=      5-min Rain = 0
KVA1 280055Z 00000KT 25/11 A3004 RMK A01 T02540110  RH  040%=      5-min Rain = 0
KVA1 280056Z 33001KT 25/11 A3004 RMK A01 T02540111  RH  041%=      5-min Rain = 0
KVA1 280057Z 33000KT 25/11 A3004 RMK A01 T02540111  RH  041%=      5-min Rain = 0
KVA1 280058Z 31002KT 25/11 A3004 RMK A01 T02540112  RH  041%=      5-min Rain = 0
KVA1 280059Z 30002KT 25/11 A3004 RMK A01 T02540113  RH  041%=      5-min Rain = 0
KVA1 280100Z 30003KT 25/11 A3004 RMK A01 T02530113  RH  041%=      5-min Rain = 0
KVA1 280101Z 32003KT 25/11 A3004 RMK A01 T02530113  RH  041%=      5-min Rain = 0
KVA1 280102Z 33002KT 25/11 A3004 RMK A01 T02520112  RH  042%=      5-min Rain = 0
KVA1 280103Z 33002KT 25/11 A3004 RMK A01 T02510113  RH  042%=      5-min Rain = 0
KVA1 280104Z 33002KT 25/11 A3004 RMK A01 T02500113  RH  042%=      5-min Rain = 0
KVA1 280105Z 33002KT 25/11 A3004 RMK A01 T02500113  RH  042%=      5-min Rain = 0
KVA1 280106Z 34003KT 25/11 A3004 RMK A01 T02490114  RH  043%=      5-min Rain = 0
KVA1 280107Z 34003KT 25/11 A3004 RMK A01 T02480114  RH  043%=      5-min Rain = 0
KVA1 280108Z 34004KT 25/11 A3004 RMK A01 T02470114  RH  043%=      5-min Rain = 0
KVA1 280109Z 35003KT 25/11 A3004 RMK A01 T02470114  RH  043%=      5-min Rain = 0
KVA1 280110Z 35003KT 25/11 A3004 RMK A01 T02460113  RH  043%=      5-min Rain = 0
KVA1 280111Z 35003KT 25/11 A3004 RMK A01 T02460113  RH  043%=      5-min Rain = 0
KVA1 280112Z 35003KT 25/11 A3004 RMK A01 T02460114  RH  044%=      5-min Rain = 0
KVA1 280113Z 34003KT 25/11 A3004 RMK A01 T02450114  RH  044%=      5-min Rain = 0
KVA1 280114Z 34003KT 24/11 A3004 RMK A01 T02440114  RH  044%=      5-min Rain = 0
KVA1 280115Z 34002KT 25/11 A3004 RMK A01 T02450114  RH  044%=      5-min Rain = 0
KVA1 280116Z 35002KT 25/11 A3004 RMK A01 T02450114  RH  044%=      5-min Rain = 0
KVA1 280117Z 33001KT 25/11 A3004 RMK A01 T02450113  RH  044%=      5-min Rain = 0
KVA1 280118Z 34001KT 25/11 A3004 RMK A01 T02450114  RH  044%=      5-min Rain = 0
KVA1 280119Z 34001KT 25/11 A3004 RMK A01 T02450114  RH  044%=      5-min Rain = 0
KVA1 280120Z 34001KT 24/11 A3004 RMK A01 T02440114  RH  044%=      5-min Rain = 0
KVA1 280121Z 36002KT 24/11 A3004 RMK A01 T02440114  RH  044%=      5-min Rain = 0
KVA1 280122Z 00002KT 24/11 A3004 RMK A01 T02430114  RH  044%=      5-min Rain = 0
KVA1 280123Z 01002KT 24/11 A3004 RMK A01 T02420114  RH  044%=      5-min Rain = 0
KVA1 280124Z 36003KT 24/11 A3004 RMK A01 T02410114  RH  045%=      5-min Rain = 0
KVA1 280125Z 36004KT 24/11 A3004 RMK A01 T02380114  RH  046%=      5-min Rain = 0
KVA1 280126Z 01004KT 24/11 A3004 RMK A01 T02360114  RH  046%=      5-min Rain = 0
KVA1 280127Z 01004KT 24/11 A3004 RMK A01 T02350114  RH  046%=      5-min Rain = 0
KVA1 280128Z 01004KT 23/11 A3005 RMK A01 T02340114  RH  047%=      5-min Rain = 0
KVA1 280129Z 01004KT 23/11 A3005 RMK A01 T02340114  RH  047%=      5-min Rain = 0
KVA1 280130Z 01004KT 23/11 A3005 RMK A01 T02340114  RH  047%=      5-min Rain = 0
KVA1 280131Z 01004KT 23/11 A3005 RMK A01 T02340114  RH  047%=      5-min Rain = 0
KVA1 280132Z 01004KT 23/11 A3005 RMK A01 T02340114  RH  047%=      5-min Rain = 0
KVA1 280133Z 02004KT 23/11 A3005 RMK A01 T02340113  RH  047%=      5-min Rain = 0
KVA1 280134Z 02004KT 23/11 A3005 RMK A01 T02340113  RH  047%=      5-min Rain = 0
KVA1 280135Z 03004KT 23/11 A3005 RMK A01 T02340113  RH  047%=      5-min Rain = 0
KVA1 280136Z 03004KT 23/11 A3005 RMK A01 T02330114  RH  047%=      5-min Rain = 0
KVA1 280137Z 03004KT 23/11 A3005 RMK A01 T02320114  RH  047%=      5-min Rain = 0
KVA1 280138Z 03004KT 23/11 A3005 RMK A01 T02310114  RH  047%=      5-min Rain = 0
KVA1 280139Z 03004KT 23/11 A3005 RMK A01 T02310114  RH  048%=      5-min Rain = 0
KVA1 280140Z 03004KT 23/11 A3005 RMK A01 T02300114  RH  048%=      5-min Rain = 0
KVA1 280141Z 03004KT 23/11 A3005 RMK A01 T02290114  RH  048%=      5-min Rain = 0
KVA1 280142Z 04004KT 23/11 A3005 RMK A01 T02280114  RH  048%=      5-min Rain = 0
KVA1 280143Z 04004KT 23/11 A3005 RMK A01 T02280114  RH  049%=      5-min Rain = 0
KVA1 280144Z 04003KT 23/11 A3005 RMK A01 T02270114  RH  049%=      5-min Rain = 0
KVA1 280145Z 04003KT 23/11 A3005 RMK A01 T02260114  RH  049%=      5-min Rain = 0
KVA1 280146Z 04003KT 23/11 A3005 RMK A01 T02260114  RH  049%=      5-min Rain = 0
KVA1 280147Z 00003KT 23/11 A3005 RMK A01 T02250114  RH  049%=      5-min Rain = 0
KVA1 280148Z 33003KT 22/11 A3005 RMK A01 T02240114  RH  050%=      5-min Rain = 0
KVA1 280149Z 33004KT 22/11 A3005 RMK A01 T02230114  RH  050%=      5-min Rain = 0
KVA1 280150Z 33004KT 22/11 A3005 RMK A01 T02210113  RH  050%=      5-min Rain = 0
KVA1 280151Z 33004KT 22/11 A3005 RMK A01 T02200114  RH  051%=      5-min Rain = 0
KVA1 280152Z 34004KT 22/12 A3005 RMK A01 T02190115  RH  052%=      5-min Rain = 0
KVA1 280153Z 34004KT 22/12 A3005 RMK A01 T02190116  RH  052%=      5-min Rain = 0
KVA1 280154Z 34004KT 22/12 A3005 RMK A01 T02190116  RH  052%=      5-min Rain = 0
KVA1 280155Z 35004KT 22/12 A3005 RMK A01 T02190116  RH  052%=      5-min Rain = 0
KVA1 280156Z 35004KT 22/12 A3005 RMK A01 T02190116  RH  052%=      5-min Rain = 0
KVA1 280157Z 34005KT 22/12 A3005 RMK A01 T02190117  RH  052%=      5-min Rain = 0
KVA1 280158Z 34005KT 22/12 A3005 RMK A01 T02180117  RH  053%=      5-min Rain = 0
KVA1 280159Z 33005KT 22/12 A3005 RMK A01 T02180118  RH  053%=      5-min Rain = 0
KVA1 280200Z 33005KT 22/12 A3005 RMK A01 T02170119  RH  054%=      5-min Rain = 0
KVA1 280201Z 33005KT 22/12 A3005 RMK A01 T02160119  RH  054%=      5-min Rain = 0
KVA1 280202Z 34005KT 22/12 A3005 RMK A01 T02160120  RH  054%=      5-min Rain = 0
KVA1 280203Z 34005KT 22/12 A3005 RMK A01 T02150120  RH  055%=      5-min Rain = 0
KVA1 280204Z 34005KT 21/12 A3005 RMK A01 T02140121  RH  055%=      5-min Rain = 0
KVA1 280205Z 34005KT 21/12 A3005 RMK A01 T02140121  RH  055%=      5-min Rain = 0
KVA1 280206Z 35005KT 21/12 A3005 RMK A01 T02140122  RH  056%=      5-min Rain = 0
KVA1 280207Z 35005KT 21/12 A3005 RMK A01 T02140123  RH  056%=      5-min Rain = 0
KVA1 280208Z 35004KT 21/12 A3005 RMK A01 T02140122  RH  056%=      5-min Rain = 0
KVA1 280209Z 35004KT 21/12 A3005 RMK A01 T02140123  RH  056%=      5-min Rain = 0
KVA1 280210Z 35004KT 21/12 A3005 RMK A01 T02140123  RH  056%=      5-min Rain = 0
KVA1 280211Z 34004KT 21/12 A3005 RMK A01 T02140123  RH  056%=      5-min Rain = 0
KVA1 280212Z 34004KT 21/12 A3005 RMK A01 T02140123  RH  056%=      5-min Rain = 0
KVA1 280213Z 34004KT 21/12 A3005 RMK A01 T02130123  RH  057%=      5-min Rain = 0
KVA1 280214Z 33004KT 21/12 A3005 RMK A01 T02120124  RH  057%=      5-min Rain = 0
KVA1 280215Z 33004KT 21/12 A3006 RMK A01 T02110123  RH  057%=      5-min Rain = 0
KVA1 280216Z 33004KT 21/12 A3006 RMK A01 T02110123  RH  057%=      5-min Rain = 0
KVA1 280217Z 33004KT 21/12 A3006 RMK A01 T02100123  RH  057%=      5-min Rain = 0
KVA1 280218Z 33004KT 21/12 A3006 RMK A01 T02090123  RH  058%=      5-min Rain = 0
KVA1 280219Z 33004KT 21/12 A3006 RMK A01 T02090123  RH  058%=      5-min Rain = 0
KVA1 280220Z 33004KT 21/12 A3006 RMK A01 T02080122  RH  058%=      5-min Rain = 0
KVA1 280221Z 33004KT 21/12 A3006 RMK A01 T02070122  RH  058%=      5-min Rain = 0
KVA1 280222Z 34004KT 21/12 A3006 RMK A01 T02060123  RH  059%=      5-min Rain = 0
KVA1 280223Z 34004KT 21/12 A3006 RMK A01 T02060122  RH  059%=      5-min Rain = 0
KVA1 280224Z 34004KT 21/12 A3006 RMK A01 T02060122  RH  059%=      5-min Rain = 0
KVA1 280225Z 34004KT 21/12 A3006 RMK A01 T02060122  RH  059%=      5-min Rain = 0
KVA1 280226Z 35004KT 21/12 A3006 RMK A01 T02060123  RH  059%=      5-min Rain = 0
KVA1 280227Z 35003KT 21/12 A3006 RMK A01 T02050122  RH  059%=      5-min Rain = 0
KVA1 280228Z 35003KT 21/12 A3006 RMK A01 T02050122  RH  059%=      5-min Rain = 0
KVA1 280229Z 36003KT 21/12 A3006 RMK A01 T02050122  RH  059%=      5-min Rain = 0
KVA1 280230Z 00003KT 20/12 A3006 RMK A01 T02040122  RH  059%=      5-min Rain = 0
KVA1 280231Z 01003KT 20/12 A3006 RMK A01 T02040122  RH  059%=      5-min Rain = 0
KVA1 280232Z 01003KT 20/12 A3006 RMK A01 T02040122  RH  060%=      5-min Rain = 0
KVA1 280233Z 01003KT 20/12 A3006 RMK A01 T02040123  RH  060%=      5-min Rain = 0
KVA1 280234Z 01002KT 20/12 A3006 RMK A01 T02040123  RH  060%=      5-min Rain = 0
KVA1 280235Z 01001KT 20/12 A3006 RMK A01 T02020122  RH  060%=      5-min Rain = 0
KVA1 280236Z 01002KT 20/12 A3006 RMK A01 T02010121  RH  060%=      5-min Rain = 0
KVA1 280237Z 02001KT 20/12 A3006 RMK A01 T02010121  RH  060%=      5-min Rain = 0
KVA1 280238Z 00001KT 20/12 A3006 RMK A01 T02010121  RH  060%=      5-min Rain = 0
KVA1 280239Z 01002KT 20/12 A3006 RMK A01 T02010121  RH  060%=      5-min Rain = 0
KVA1 280240Z 01002KT 20/12 A3006 RMK A01 T02000122  RH  061%=      5-min Rain = 0
KVA1 280241Z 01002KT 20/12 A3006 RMK A01 T02000122  RH  061%=      5-min Rain = 0
KVA1 280242Z 01003KT 20/12 A3006 RMK A01 T02000122  RH  061%=      5-min Rain = 0
KVA1 280243Z 02002KT 20/12 A3006 RMK A01 T02010122  RH  060%=      5-min Rain = 0
KVA1 280244Z 01002KT 20/12 A3006 RMK A01 T02020122  RH  060%=      5-min Rain = 0
KVA1 280245Z 36003KT 20/12 A3007 RMK A01 T02020121  RH  060%=      5-min Rain = 0
KVA1 280246Z 00003KT 20/12 A3007 RMK A01 T02020121  RH  060%=      5-min Rain = 0
KVA1 280247Z 35003KT 20/12 A3007 RMK A01 T02010121  RH  060%=      5-min Rain = 0
KVA1 280248Z 35003KT 20/12 A3007 RMK A01 T02010120  RH  060%=      5-min Rain = 0
KVA1 280249Z 35003KT 20/12 A3007 RMK A01 T02000119  RH  060%=      5-min Rain = 0
KVA1 280250Z 35003KT 20/12 A3007 RMK A01 T01990119  RH  060%=      5-min Rain = 0
KVA1 280251Z 00003KT 20/12 A3007 RMK A01 T01990118  RH  060%=      5-min Rain = 0
KVA1 280252Z 35002KT 20/12 A3007 RMK A01 T01980117  RH  059%=      5-min Rain = 0
KVA1 280253Z 35002KT 20/12 A3007 RMK A01 T01970117  RH  060%=      5-min Rain = 0
KVA1 280254Z 35002KT 20/12 A3007 RMK A01 T01960117  RH  060%=      5-min Rain = 0
KVA1 280255Z 34002KT 19/12 A3007 RMK A01 T01940116  RH  061%=      5-min Rain = 0
KVA1 280256Z 35002KT 19/12 A3007 RMK A01 T01930117  RH  061%=      5-min Rain = 0
KVA1 280257Z 35002KT 19/12 A3007 RMK A01 T01920116  RH  061%=      5-min Rain = 0
KVA1 280258Z 35002KT 19/12 A3007 RMK A01 T01920117  RH  062%=      5-min Rain = 0
KVA1 280259Z 35002KT 19/12 A3007 RMK A01 T01910116  RH  062%=      5-min Rain = 0
KVA1 280300Z 35002KT 19/12 A3007 RMK A01 T01910116  RH  062%=      5-min Rain = 0
KVA1 280301Z 35002KT 19/12 A3007 RMK A01 T01910117  RH  062%=      5-min Rain = 0
KVA1 280302Z 35002KT 19/12 A3007 RMK A01 T01910117  RH  062%=      5-min Rain = 0
KVA1 280303Z 35003KT 19/12 A3007 RMK A01 T01910117  RH  062%=      5-min Rain = 0
KVA1 280304Z 36003KT 19/12 A3007 RMK A01 T01910117  RH  062%=      5-min Rain = 0
KVA1 280305Z 00003KT 19/12 A3007 RMK A01 T01920117  RH  062%=      5-min Rain = 0
KVA1 280306Z 35003KT 19/12 A3007 RMK A01 T01930118  RH  062%=      5-min Rain = 0
KVA1 280307Z 35003KT 19/12 A3007 RMK A01 T01930117  RH  061%=      5-min Rain = 0
KVA1 280308Z 35003KT 19/12 A3007 RMK A01 T01940117  RH  061%=      5-min Rain = 0
KVA1 280309Z 35003KT 19/12 A3007 RMK A01 T01940117  RH  061%=      5-min Rain = 0
KVA1 280310Z 34003KT 19/12 A3007 RMK A01 T01940117  RH  061%=      5-min Rain = 0
KVA1 280311Z 33004KT 19/12 A3007 RMK A01 T01940117  RH  061%=      5-min Rain = 0
KVA1 280312Z 33004KT 19/12 A3007 RMK A01 T01940118  RH  061%=      5-min Rain = 0
KVA1 280313Z 34004KT 19/12 A3007 RMK A01 T01930118  RH  062%=      5-min Rain = 0
KVA1 280314Z 34004KT 19/12 A3007 RMK A01 T01920117  RH  062%=      5-min Rain = 0
KVA1 280315Z 34004KT 19/12 A3007 RMK A01 T01910117  RH  062%=      5-min Rain = 0
KVA1 280316Z 33003KT 19/12 A3007 RMK A01 T01890117  RH  063%=      5-min Rain = 0
KVA1 280317Z 32003KT 19/12 A3007 RMK A01 T01880118  RH  064%=      5-min Rain = 0
KVA1 280318Z 31003KT 19/12 A3007 RMK A01 T01870117  RH  064%=      5-min Rain = 0
KVA1 280319Z 31003KT 19/12 A3007 RMK A01 T01850118  RH  065%=      5-min Rain = 0
KVA1 280320Z 31003KT 18/12 A3007 RMK A01 T01840119  RH  066%=      5-min Rain = 0
KVA1 280321Z 32003KT 18/12 A3007 RMK A01 T01830120  RH  067%=      5-min Rain = 0
KVA1 280322Z 32003KT 18/12 A3007 RMK A01 T01830121  RH  067%=      5-min Rain = 0
KVA1 280323Z 32003KT 18/12 A3007 RMK A01 T01820121  RH  067%=      5-min Rain = 0
KVA1 280324Z 32004KT 18/12 A3007 RMK A01 T01820121  RH  068%=      5-min Rain = 0
KVA1 280325Z 32003KT 18/12 A3007 RMK A01 T01810121  RH  068%=      5-min Rain = 0
KVA1 280326Z 32004KT 18/12 A3007 RMK A01 T01810120  RH  068%=      5-min Rain = 0
KVA1 280327Z 33003KT 18/12 A3007 RMK A01 T01810120  RH  068%=      5-min Rain = 0
KVA1 280328Z 33003KT 18/12 A3007 RMK A01 T01810120  RH  068%=      5-min Rain = 0
KVA1 280329Z 33003KT 18/12 A3007 RMK A01 T01810120  RH  067%=      5-min Rain = 0
KVA1 280330Z 34003KT 18/12 A3007 RMK A01 T01810120  RH  067%=      5-min Rain = 0
KVA1 280331Z 34003KT 18/12 A3007 RMK A01 T01810120  RH  067%=      5-min Rain = 0
KVA1 280332Z 34003KT 18/12 A3007 RMK A01 T01810119  RH  067%=      5-min Rain = 0
KVA1 280333Z 34003KT 18/12 A3007 RMK A01 T01810119  RH  067%=      5-min Rain = 0
KVA1 280334Z 34003KT 18/12 A3007 RMK A01 T01810119  RH  067%=      5-min Rain = 0
KVA1 280335Z 34003KT 18/12 A3007 RMK A01 T01810118  RH  067%=      5-min Rain = 0
KVA1 280336Z 34002KT 18/12 A3007 RMK A01 T01800118  RH  067%=      5-min Rain = 0
KVA1 280337Z 35002KT 18/12 A3007 RMK A01 T01800117  RH  067%=      5-min Rain = 0
KVA1 280338Z 35002KT 18/12 A3007 RMK A01 T01800117  RH  067%=      5-min Rain = 0
KVA1 280339Z 35002KT 18/12 A3007 RMK A01 T01790117  RH  067%=      5-min Rain = 0
KVA1 280340Z 35002KT 18/12 A3007 RMK A01 T01790117  RH  067%=      5-min Rain = 0
KVA1 280341Z 35002KT 18/12 A3007 RMK A01 T01790116  RH  067%=      5-min Rain = 0
KVA1 280342Z 34002KT 18/12 A3007 RMK A01 T01780117  RH  067%=      5-min Rain = 0
KVA1 280343Z 33002KT 18/12 A3007 RMK A01 T01780116  RH  067%=      5-min Rain = 0
KVA1 280344Z 33002KT 18/12 A3007 RMK A01 T01770115  RH  067%=      5-min Rain = 0
KVA1 280345Z 33002KT 18/12 A3007 RMK A01 T01760115  RH  067%=      5-min Rain = 0
KVA1 280346Z 33002KT 18/12 A3007 RMK A01 T01760115  RH  068%=      5-min Rain = 0
KVA1 280347Z 32003KT 18/12 A3008 RMK A01 T01750115  RH  068%=      5-min Rain = 0
KVA1 280348Z 32003KT 17/12 A3008 RMK A01 T01740115  RH  068%=      5-min Rain = 0
KVA1 280349Z 32003KT 17/11 A3008 RMK A01 T01730114  RH  068%=      5-min Rain = 0
KVA1 280350Z 31004KT 17/12 A3008 RMK A01 T01730115  RH  069%=      5-min Rain = 0
KVA1 280351Z 31004KT 17/12 A3008 RMK A01 T01720116  RH  069%=      5-min Rain = 0
KVA1 280352Z 31004KT 17/12 A3008 RMK A01 T01720116  RH  069%=      5-min Rain = 0
KVA1 280353Z 31004KT 17/12 A3008 RMK A01 T01730116  RH  069%=      5-min Rain = 0
KVA1 280354Z 31004KT 17/12 A3008 RMK A01 T01740116  RH  069%=      5-min Rain = 0
KVA1 280355Z 31004KT 17/12 A3008 RMK A01 T01740116  RH  069%=      5-min Rain = 0
KVA1 280356Z 31004KT 17/12 A3008 RMK A01 T01740116  RH  069%=      5-min Rain = 0
KVA1 280357Z 31004KT 17/12 A3008 RMK A01 T01740116  RH  069%=      5-min Rain = 0
KVA1 280358Z 30005KT 17/12 A3008 RMK A01 T01740117  RH  069%=      5-min Rain = 0
KVA1 280359Z 30005KT 17/12 A3008 RMK A01 T01740117  RH  069%=      5-min Rain = 0
KVA1 280400Z 30005KT 17/12 A3008 RMK A01 T01730116  RH  069%=      5-min Rain = 0
KVA1 280401Z 30005KT 17/12 A3008 RMK A01 T01730117  RH  069%=      5-min Rain = 0
KVA1 280402Z 30005KT 17/12 A3008 RMK A01 T01730117  RH  070%=      5-min Rain = 0
KVA1 280403Z 30005KT 17/12 A3008 RMK A01 T01730117  RH  070%=      5-min Rain = 0
KVA1 280404Z 30005KT 17/12 A3008 RMK A01 T01730117  RH  070%=      5-min Rain = 0
KVA1 280405Z 30005KT 17/12 A3008 RMK A01 T01730117  RH  070%=      5-min Rain = 0
KVA1 280406Z 30005KT 17/12 A3008 RMK A01 T01730117  RH  070%=      5-min Rain = 0
KVA1 280407Z 30005KT 17/12 A3008 RMK A01 T01740117  RH  069%=      5-min Rain = 0
KVA1 280408Z 30005KT 17/12 A3008 RMK A01 T01740117  RH  069%=      5-min Rain = 0
KVA1 280409Z 30005KT 17/12 A3008 RMK A01 T01740117  RH  069%=      5-min Rain = 0
KVA1 280410Z 30005KT 17/12 A3008 RMK A01 T01740117  RH  069%=      5-min Rain = 0
KVA1 280411Z 30005KT 18/12 A3008 RMK A01 T01750117  RH  069%=      5-min Rain = 0
KVA1 280412Z 30005KT 18/12 A3008 RMK A01 T01750117  RH  069%=      5-min Rain = 0
KVA1 280413Z 30005KT 17/12 A3008 RMK A01 T01740117  RH  069%=      5-min Rain = 0
KVA1 280414Z 29005KT 18/12 A3008 RMK A01 T01750117  RH  069%=      5-min Rain = 0
KVA1 280415Z 29006KT 17/12 A3008 RMK A01 T01740117  RH  069%=      5-min Rain = 0
KVA1 280416Z 29006KT 18/12 A3008 RMK A01 T01750117  RH  069%=      5-min Rain = 0
KVA1 280417Z 29006KT 17/12 A3008 RMK A01 T01740117  RH  069%=      5-min Rain = 0
KVA1 280418Z 30005KT 17/12 A3008 RMK A01 T01740117  RH  069%=      5-min Rain = 0
KVA1 280419Z 30005KT 17/12 A3008 RMK A01 T01740117  RH  069%=      5-min Rain = 0
KVA1 280420Z 30005KT 18/12 A3008 RMK A01 T01750117  RH  069%=      5-min Rain = 0
KVA1 280421Z 30005KT 18/12 A3008 RMK A01 T01750118  RH  069%=      5-min Rain = 0
KVA1 280422Z 30005KT 18/12 A3008 RMK A01 T01750118  RH  069%=      5-min Rain = 0
KVA1 280423Z 30005KT 18/12 A3008 RMK A01 T01750118  RH  069%=      5-min Rain = 0
KVA1 280424Z 30004KT 17/12 A3008 RMK A01 T01740118  RH  069%=      5-min Rain = 0
KVA1 280425Z 30004KT 17/12 A3008 RMK A01 T01740118  RH  069%=      5-min Rain = 0
KVA1 280426Z 30004KT 17/12 A3008 RMK A01 T01740118  RH  069%=      5-min Rain = 0
KVA1 280427Z 30004KT 17/12 A3008 RMK A01 T01740118  RH  069%=      5-min Rain = 0
KVA1 280428Z 30004KT 17/12 A3008 RMK A01 T01740118  RH  070%=      5-min Rain = 0
KVA1 280429Z 30004KT 17/12 A3008 RMK A01 T01740118  RH  070%=      5-min Rain = 0
KVA1 280430Z 31004KT 17/12 A3008 RMK A01 T01740118  RH  070%=      5-min Rain = 0
KVA1 280431Z 31004KT 17/12 A3008 RMK A01 T01740118  RH  070%=      5-min Rain = 0
KVA1 280432Z 31004KT 17/12 A3008 RMK A01 T01740118  RH  070%=      5-min Rain = 0
KVA1 280433Z 31004KT 17/12 A3008 RMK A01 T01740118  RH  069%=      5-min Rain = 0
KVA1 280434Z 31005KT 17/12 A3008 RMK A01 T01740117  RH  069%=      5-min Rain = 0
KVA1 280435Z 32005KT 17/12 A3008 RMK A01 T01740117  RH  069%=      5-min Rain = 0
KVA1 280436Z 32005KT 17/12 A3008 RMK A01 T01740117  RH  069%=      5-min Rain = 0
KVA1 280437Z 32005KT 17/12 A3008 RMK A01 T01740117  RH  069%=      5-min Rain = 0
KVA1 280438Z 32005KT 17/12 A3008 RMK A01 T01740117  RH  069%=      5-min Rain = 0
KVA1 280439Z 32005KT 17/12 A3008 RMK A01 T01740117  RH  069%=      5-min Rain = 0
KVA1 280440Z 32005KT 17/12 A3008 RMK A01 T01740117  RH  069%=      5-min Rain = 0
KVA1 280441Z 31005KT 17/12 A3008 RMK A01 T01740117  RH  069%=      5-min Rain = 0
KVA1 280442Z 31006KT 17/12 A3008 RMK A01 T01740116  RH  069%=      5-min Rain = 0
KVA1 280443Z 31006KT 17/12 A3008 RMK A01 T01740116  RH  069%=      5-min Rain = 0
KVA1 280444Z 31006KT 17/12 A3008 RMK A01 T01740116  RH  069%=      5-min Rain = 0
KVA1 280445Z 31006KT 17/12 A3008 RMK A01 T01730116  RH  069%=      5-min Rain = 0
KVA1 280446Z 30006KT 17/12 A3008 RMK A01 T01740116  RH  069%=      5-min Rain = 0
KVA1 280447Z 30006KT 17/12 A3008 RMK A01 T01730117  RH  069%=      5-min Rain = 0
KVA1 280448Z 30006KT 17/12 A3008 RMK A01 T01740117  RH  069%=      5-min Rain = 0
KVA1 280449Z 30006KT 17/12 A3008 RMK A01 T01730117  RH  069%=      5-min Rain = 0
KVA1 280450Z 30006KT 17/12 A3008 RMK A01 T01730117  RH  069%=      5-min Rain = 0
KVA1 280451Z 30006KT 17/12 A3008 RMK A01 T01730117  RH  069%=      5-min Rain = 0
KVA1 280452Z 30006KT 17/12 A3008 RMK A01 T01730117  RH  070%=      5-min Rain = 0
KVA1 280453Z 30005KT 17/12 A3008 RMK A01 T01730117  RH  070%=      5-min Rain = 0
KVA1 280454Z 30006KT 17/12 A3008 RMK A01 T01730117  RH  070%=      5-min Rain = 0
KVA1 280455Z 30006KT 17/12 A3008 RMK A01 T01730118  RH  070%=      5-min Rain = 0
KVA1 280456Z 29006KT 17/12 A3008 RMK A01 T01730118  RH  070%=      5-min Rain = 0
KVA1 280457Z 29006KT 17/12 A3008 RMK A01 T01730118  RH  070%=      5-min Rain = 0
KVA1 280458Z 29006KT 17/12 A3008 RMK A01 T01730117  RH  070%=      5-min Rain = 0
KVA1 280459Z 29006KT 17/12 A3008 RMK A01 T01730118  RH  070%=      5-min Rain = 0

Page generated in 0.0769 seconds.